Wetterdaten: Mittwoch, 27.07.2022
Datum Zeit Temp. Aussen Temp. o. S. Temp +5cm Feuchte Auss Luftdruck Regen Sonnenschein Regendauer Solar Windben Empfang
27.07.2022 00:00 17,1 C 16,1 C 12,8 C 71 % 1019,6 hPa 0,0 l/m 0 min 0 min 0 W/m 6,4 km/h (2 Bft) 100,00 %
27.07.2022 00:02 17,1 C 16,1 C 12,8 C 71 % 1019,5 hPa 0,0 l/m 0 min 0 min 0 W/m 0,0 km/h (0 Bft) 11,76 %
27.07.2022 00:04 17,1 C 16,1 C 12,8 C 71 % 1019,6 hPa 0,0 l/m 0 min 0 min 0 W/m 6,4 km/h (2 Bft) 89,13 %
27.07.2022 00:08 17,1 C 16,1 C 12,8 C 71 % 1019,6 hPa 0,0 l/m 0 min 0 min 0 W/m 9,7 km/h (2 Bft) 100,00 %
27.07.2022 00:10 17,0 C 16,1 C 12,8 C 71 % 1019,5 hPa 0,0 l/m 0 min 0 min 0 W/m 9,7 km/h (2 Bft) 97,87 %
27.07.2022 00:12 16,9 C 16,1 C 12,8 C 71 % 1019,5 hPa 0,0 l/m 0 min 0 min 0 W/m 6,4 km/h (2 Bft) 95,74 %
27.07.2022 00:14 16,9 C 16,1 C 12,8 C 71 % 1019,6 hPa 0,0 l/m 0 min 0 min 0 W/m 3,2 km/h (1 Bft) 100,00 %
27.07.2022 00:16 16,9 C 16,1 C 12,8 C 71 % 1019,6 hPa 0,0 l/m 0 min 0 min 0 W/m 3,2 km/h (1 Bft) 100,00 %
27.07.2022 00:18 16,9 C 16,1 C 12,8 C 71 % 1019,7 hPa 0,0 l/m 0 min 0 min 0 W/m 6,4 km/h (2 Bft) 100,00 %
27.07.2022 00:20 16,9 C 16,1 C 12,8 C 71 % 1019,7 hPa 0,0 l/m 0 min 0 min 0 W/m 6,4 km/h (2 Bft) 97,87 %
27.07.2022 00:22 16,9 C 16,1 C 12,8 C 72 % 1019,7 hPa 0,0 l/m 0 min 0 min 0 W/m 9,7 km/h (2 Bft) 95,74 %
27.07.2022 00:24 16,8 C 16,1 C 12,8 C 71 % 1019,7 hPa 0,0 l/m 0 min 0 min 0 W/m 6,4 km/h (2 Bft) 97,87 %
27.07.2022 00:26 16,8 C 16,1 C 12,8 C 72 % 1019,7 hPa 0,0 l/m 0 min 0 min 0 W/m 6,4 km/h (2 Bft) 97,87 %
27.07.2022 00:28 16,8 C 16,1 C 12,8 C 72 % 1019,7 hPa 0,0 l/m 0 min 0 min 0 W/m 6,4 km/h (2 Bft) 97,87 %
27.07.2022 00:30 16,8 C 16,1 C 12,8 C 72 % 1019,7 hPa 0,0 l/m 0 min 0 min 0 W/m 3,2 km/h (1 Bft) 97,83 %
27.07.2022 00:32 16,7 C 16,1 C 12,8 C 72 % 1019,7 hPa 0,0 l/m 0 min 0 min 0 W/m 6,4 km/h (2 Bft) 97,87 %
27.07.2022 00:34 16,7 C 16,1 C 12,2 C 72 % 1019,7 hPa 0,0 l/m 0 min 0 min 0 W/m 6,4 km/h (2 Bft) 97,87 %
27.07.2022 00:36 16,7 C 15,6 C 12,2 C 73 % 1019,7 hPa 0,0 l/m 0 min 0 min 0 W/m 6,4 km/h (2 Bft) 97,87 %
27.07.2022 00:38 16,6 C 15,6 C 12,2 C 73 % 1019,7 hPa 0,0 l/m 0 min 0 min 0 W/m 6,4 km/h (2 Bft) 97,87 %
27.07.2022 00:40 16,6 C 16,1 C 12,2 C 73 % 1019,7 hPa 0,0 l/m 0 min 0 min 0 W/m 3,2 km/h (1 Bft) 97,87 %
27.07.2022 00:42 16,6 C 16,1 C 12,8 C 73 % 1019,7 hPa 0,0 l/m 0 min 0 min 0 W/m 12,9 km/h (3 Bft) 97,83 %
27.07.2022 00:44 16,6 C 16,1 C 12,8 C 73 % 1019,7 hPa 0,0 l/m 0 min 0 min 0 W/m 3,2 km/h (1 Bft) 97,87 %
27.07.2022 00:46 16,6 C 16,1 C 12,2 C 73 % 1019,7 hPa 0,0 l/m 0 min 0 min 0 W/m 6,4 km/h (2 Bft) 93,62 %
27.07.2022 00:48 16,6 C 16,1 C 12,2 C 74 % 1019,7 hPa 0,0 l/m 0 min 0 min 0 W/m 9,7 km/h (2 Bft) 93,62 %
27.07.2022 00:50 16,6 C 16,1 C 12,8 C 73 % 1019,8 hPa 0,0 l/m 0 min 0 min 0 W/m 9,7 km/h (2 Bft) 93,62 %
27.07.2022 00:52 16,6 C 16,1 C 12,8 C 74 % 1019,7 hPa 0,0 l/m 0 min 0 min 0 W/m 6,4 km/h (2 Bft) 95,74 %
27.07.2022 00:54 16,6 C 16,1 C 12,2 C 74 % 1019,7 hPa 0,0 l/m 0 min 0 min 0 W/m 3,2 km/h (1 Bft) 95,65 %
27.07.2022 00:56 16,6 C 16,1 C 12,2 C 74 % 1019,7 hPa 0,0 l/m 0 min 0 min 0 W/m 3,2 km/h (1 Bft) 95,74 %
27.07.2022 00:58 16,6 C 15,6 C 12,2 C 74 % 1019,7 hPa 0,0 l/m 0 min 0 min 0 W/m 6,4 km/h (2 Bft) 95,74 %
27.07.2022 01:00 16,6 C 16,1 C 12,2 C 74 % 1019,7 hPa 0,0 l/m 0 min 0 min 0 W/m 6,4 km/h (2 Bft) 95,74 %
27.07.2022 01:02 16,6 C 16,1 C 12,2 C 74 % 1019,8 hPa 0,0 l/m 0 min 0 min 0 W/m 6,4 km/h (2 Bft) 93,62 %
27.07.2022 01:04 16,6 C 15,6 C 12,2 C 74 % 1019,8 hPa 0,0 l/m 0 min 0 min 0 W/m 9,7 km/h (2 Bft) 97,87 %
27.07.2022 01:06 16,6 C 15,6 C 12,2 C 74 % 1019,7 hPa 0,0 l/m 0 min 0 min 0 W/m 6,4 km/h (2 Bft) 95,74 %
27.07.2022 01:08 16,6 C 16,1 C 12,2 C 75 % 1019,7 hPa 0,0 l/m 0 min 0 min 0 W/m 6,4 km/h (2 Bft) 95,65 %
27.07.2022 01:10 16,6 C 16,1 C 12,2 C 75 % 1019,7 hPa 0,0 l/m 0 min 0 min 0 W/m 6,4 km/h (2 Bft) 97,87 %
27.07.2022 01:12 16,6 C 16,1 C 12,2 C 75 % 1019,8 hPa 0,0 l/m 0 min 0 min 0 W/m 3,2 km/h (1 Bft) 95,74 %
27.07.2022 01:14 16,6 C 15,6 C 12,2 C 75 % 1019,7 hPa 0,0 l/m 0 min 0 min 0 W/m 12,9 km/h (3 Bft) 100,00 %
27.07.2022 01:16 16,5 C 15,6 C 12,2 C 75 % 1019,7 hPa 0,0 l/m 0 min 0 min 0 W/m 6,4 km/h (2 Bft) 100,00 %
27.07.2022 01:18 16,5 C 15,6 C 12,2 C 75 % 1019,7 hPa 0,0 l/m 0 min 0 min 0 W/m 3,2 km/h (1 Bft) 100,00 %
27.07.2022 01:20 16,5 C 15,6 C 12,2 C 75 % 1019,8 hPa 0,0 l/m 0 min 0 min 0 W/m 6,4 km/h (2 Bft) 100,00 %
27.07.2022 01:22 16,4 C 15,6 C 12,2 C 75 % 1019,7 hPa 0,0 l/m 0 min 0 min 0 W/m 6,4 km/h (2 Bft) 100,00 %
27.07.2022 01:24 16,4 C 15,6 C 12,2 C 75 % 1019,8 hPa 0,0 l/m 0 min 0 min 0 W/m 9,7 km/h (2 Bft) 97,87 %
27.07.2022 01:26 16,3 C 15,6 C 12,2 C 75 % 1019,7 hPa 0,0 l/m 0 min 0 min 0 W/m 9,7 km/h (2 Bft) 100,00 %
27.07.2022 01:28 16,3 C 15,6 C 12,2 C 75 % 1019,7 hPa 0,0 l/m 0 min 0 min 0 W/m 6,4 km/h (2 Bft) 97,87 %
27.07.2022 01:30 16,3 C 15,6 C 12,2 C 76 % 1019,8 hPa 0,0 l/m 0 min 0 min 0 W/m 6,4 km/h (2 Bft) 97,83 %
27.07.2022 01:32 16,3 C 15,6 C 12,2 C 76 % 1019,8 hPa 0,0 l/m 0 min 0 min 0 W/m 6,4 km/h (2 Bft) 97,87 %
27.07.2022 01:34 16,3 C 15,6 C 12,2 C 76 % 1019,7 hPa 0,0 l/m 0 min 0 min 0 W/m 3,2 km/h (1 Bft) 97,87 %
27.07.2022 01:36 16,3 C 15,6 C 12,2 C 76 % 1019,6 hPa 0,0 l/m 0 min 0 min 0 W/m 6,4 km/h (2 Bft) 97,87 %
27.07.2022 01:38 16,2 C 15,6 C 12,2 C 76 % 1019,7 hPa 0,0 l/m 0 min 0 min 0 W/m 3,2 km/h (1 Bft) 95,74 %
27.07.2022 01:40 16,2 C 15,6 C 11,7 C 76 % 1019,7 hPa 0,0 l/m 0 min 0 min 0 W/m 6,4 km/h (2 Bft) 95,74 %
27.07.2022 01:42 16,2 C 15,6 C 12,2 C 76 % 1019,7 hPa 0,0 l/m 0 min 0 min 0 W/m 3,2 km/h (1 Bft) 97,83 %
27.07.2022 01:44 16,2 C 15,6 C 12,2 C 76 % 1019,7 hPa 0,0 l/m 0 min 0 min 0 W/m 3,2 km/h (1 Bft) 97,87 %
27.07.2022 01:46 16,1 C 15,6 C 11,7 C 76 % 1019,7 hPa 0,0 l/m 0 min 0 min 0 W/m 0,0 km/h (0 Bft) 95,74 %
27.07.2022 01:48 16,1 C 15,6 C 11,7 C 77 % 1019,7 hPa 0,0 l/m 0 min 0 min 0 W/m 6,4 km/h (2 Bft) 95,74 %
27.07.2022 01:50 16,1 C 15,0 C 11,7 C 76 % 1019,7 hPa 0,0 l/m 0 min 0 min 0 W/m 6,4 km/h (2 Bft) 97,87 %
27.07.2022 01:52 16,1 C 15,0 C 11,7 C 76 % 1019,7 hPa 0,0 l/m 0 min 0 min 0 W/m 12,9 km/h (3 Bft) 97,87 %
27.07.2022 01:54 16,0 C 15,0 C 11,7 C 76 % 1019,7 hPa 0,0 l/m 0 min 0 min 0 W/m 9,7 km/h (2 Bft) 97,83 %
27.07.2022 01:56 15,9 C 15,0 C 11,7 C 76 % 1019,7 hPa 0,0 l/m 0 min 0 min 0 W/m 6,4 km/h (2 Bft) 95,74 %
27.07.2022 01:58 15,9 C 15,0 C 11,7 C 77 % 1019,7 hPa 0,0 l/m 0 min 0 min 0 W/m 9,7 km/h (2 Bft) 95,74 %
27.07.2022 02:00 15,9 C 15,0 C 11,7 C 77 % 1019,7 hPa 0,0 l/m 0 min 0 min 0 W/m 9,7 km/h (2 Bft) 97,87 %
27.07.2022 02:02 15,8 C 15,0 C 11,7 C 77 % 1019,7 hPa 0,0 l/m 0 min 0 min 0 W/m 6,4 km/h (2 Bft) 97,87 %
27.07.2022 02:04 15,8 C 15,0 C 11,7 C 77 % 1019,7 hPa 0,0 l/m 0 min 0 min 0 W/m 6,4 km/h (2 Bft) 93,62 %
27.07.2022 02:06 15,8 C 15,0 C 11,7 C 77 % 1019,7 hPa 0,0 l/m 0 min 0 min 0 W/m 6,4 km/h (2 Bft) 97,83 %
27.07.2022 02:08 15,8 C 15,0 C 11,7 C 77 % 1019,7 hPa 0,0 l/m 0 min 0 min 0 W/m 6,4 km/h (2 Bft) 95,74 %
27.07.2022 02:10 15,8 C 15,0 C 11,7 C 77 % 1019,7 hPa 0,0 l/m 0 min 0 min 0 W/m 3,2 km/h (1 Bft) 97,87 %
27.07.2022 02:12 15,8 C 15,0 C 11,7 C 77 % 1019,7 hPa 0,0 l/m 0 min 0 min 0 W/m 9,7 km/h (2 Bft) 100,00 %
27.07.2022 02:14 15,8 C 15,0 C 11,7 C 77 % 1019,7 hPa 0,0 l/m 0 min 0 min 0 W/m 6,4 km/h (2 Bft) 95,74 %
27.07.2022 02:16 15,8 C 15,0 C 11,7 C 77 % 1019,7 hPa 0,0 l/m 0 min 0 min 0 W/m 6,4 km/h (2 Bft) 97,87 %
27.07.2022 02:18 15,7 C 15,0 C 11,7 C 78 % 1019,7 hPa 0,0 l/m 0 min 0 min 0 W/m 3,2 km/h (1 Bft) 97,83 %
27.07.2022 02:20 15,7 C 15,0 C 11,7 C 78 % 1019,7 hPa 0,0 l/m 0 min 0 min 0 W/m 9,7 km/h (2 Bft) 97,87 %
27.07.2022 02:22 15,7 C 15,0 C 11,7 C 78 % 1019,7 hPa 0,0 l/m 0 min 0 min 0 W/m 3,2 km/h (1 Bft) 97,87 %
27.07.2022 02:24 15,7 C 15,0 C 11,7 C 78 % 1019,7 hPa 0,0 l/m 0 min 0 min 0 W/m 3,2 km/h (1 Bft) 100,00 %
27.07.2022 02:26 15,7 C 15,0 C 11,7 C 78 % 1019,7 hPa 0,0 l/m 0 min 0 min 0 W/m 3,2 km/h (1 Bft) 100,00 %
27.07.2022 02:28 15,7 C 15,0 C 11,7 C 78 % 1019,8 hPa 0,0 l/m 0 min 0 min 0 W/m 6,4 km/h (2 Bft) 82,98 %
27.07.2022 02:30 15,7 C 15,0 C 11,7 C 78 % 1019,8 hPa 0,0 l/m 0 min 0 min 0 W/m 3,2 km/h (1 Bft) 73,47 %
27.07.2022 02:32 15,7 C 15,0 C 11,7 C 78 % 1019,8 hPa 0,0 l/m 0 min 0 min 0 W/m 3,2 km/h (1 Bft) 97,87 %
27.07.2022 02:34 15,7 C 15,0 C 11,7 C 78 % 1019,8 hPa 0,0 l/m 0 min 0 min 0 W/m 6,4 km/h (2 Bft) 100,00 %
27.07.2022 02:36 15,7 C 15,0 C 11,7 C 78 % 1019,8 hPa 0,0 l/m 0 min 0 min 0 W/m 9,7 km/h (2 Bft) 96,55 %
27.07.2022 02:38 15,7 C 15,0 C 11,7 C 78 % 1019,8 hPa 0,0 l/m 0 min 0 min 0 W/m 3,2 km/h (1 Bft) 97,14 %
27.07.2022 02:40 15,7 C 15,0 C 11,7 C 78 % 1019,8 hPa 0,0 l/m 0 min 0 min 0 W/m 6,4 km/h (2 Bft) 97,87 %
27.07.2022 02:42 15,7 C 15,0 C 11,7 C 78 % 1019,8 hPa 0,0 l/m 0 min 0 min 0 W/m 9,7 km/h (2 Bft) 95,74 %
27.07.2022 02:44 15,7 C 15,0 C 11,7 C 78 % 1019,8 hPa 0,0 l/m 0 min 0 min 0 W/m 3,2 km/h (1 Bft) 97,87 %
27.07.2022 02:46 15,7 C 15,0 C 11,7 C 79 % 1019,8 hPa 0,0 l/m 0 min 0 min 0 W/m 3,2 km/h (1 Bft) 97,87 %
27.07.2022 02:48 15,6 C 15,0 C 11,7 C 79 % 1019,7 hPa 0,0 l/m 0 min 0 min 0 W/m 6,4 km/h (2 Bft) 97,87 %
27.07.2022 02:50 15,6 C 15,0 C 11,7 C 79 % 1019,7 hPa 0,0 l/m 0 min 0 min 0 W/m 3,2 km/h (1 Bft) 97,83 %
27.07.2022 02:52 15,6 C 14,4 C 11,7 C 79 % 1019,8 hPa 0,0 l/m 0 min 0 min 0 W/m 3,2 km/h (1 Bft) 97,87 %
27.07.2022 02:54 15,6 C 14,4 C 11,7 C 79 % 1019,7 hPa 0,0 l/m 0 min 0 min 0 W/m 6,4 km/h (2 Bft) 97,87 %
27.07.2022 02:56 15,6 C 14,4 C 11,7 C 79 % 1019,7 hPa 0,0 l/m 0 min 0 min 0 W/m 3,2 km/h (1 Bft) 97,87 %
27.07.2022 02:58 15,6 C 14,4 C 11,1 C 79 % 1019,8 hPa 0,0 l/m 0 min 0 min 0 W/m 0,0 km/h (0 Bft) 95,74 %
27.07.2022 03:00 15,6 C 14,4 C 11,1 C 80 % 1019,7 hPa 0,0 l/m 0 min 0 min 0 W/m 3,2 km/h (1 Bft) 97,87 %
27.07.2022 03:02 15,6 C 14,4 C 11,1 C 80 % 1019,7 hPa 0,0 l/m 0 min 0 min 0 W/m 3,2 km/h (1 Bft) 97,83 %
27.07.2022 03:04 15,5 C 14,4 C 11,1 C 80 % 1019,7 hPa 0,0 l/m 0 min 0 min 0 W/m 6,4 km/h (2 Bft) 100,00 %
27.07.2022 03:06 15,4 C 14,4 C 11,1 C 80 % 1019,7 hPa 0,0 l/m 0 min 0 min 0 W/m 3,2 km/h (1 Bft) 98,31 %
27.07.2022 03:08 15,4 C 14,4 C 11,1 C 80 % 1019,7 hPa 0,0 l/m 0 min 0 min 0 W/m 3,2 km/h (1 Bft) 100,00 %
27.07.2022 03:10 15,4 C 14,4 C 11,1 C 80 % 1019,7 hPa 0,0 l/m 0 min 0 min 0 W/m 0,0 km/h (0 Bft) 97,87 %
27.07.2022 03:12 15,3 C 14,4 C 11,1 C 81 % 1019,8 hPa 0,0 l/m 0 min 0 min 0 W/m 9,7 km/h (2 Bft) 97,87 %
27.07.2022 03:14 15,3 C 13,9 C 11,1 C 81 % 1019,7 hPa 0,0 l/m 0 min 0 min 0 W/m 3,2 km/h (1 Bft) 97,83 %
27.07.2022 03:16 15,3 C 13,9 C 11,1 C 81 % 1019,7 hPa 0,0 l/m 0 min 0 min 0 W/m 3,2 km/h (1 Bft) 97,87 %
27.07.2022 03:18 15,2 C 13,9 C 11,1 C 81 % 1019,7 hPa 0,0 l/m 0 min 0 min 0 W/m 3,2 km/h (1 Bft) 97,87 %
27.07.2022 03:20 15,2 C 13,9 C 10,6 C 81 % 1019,7 hPa 0,0 l/m 0 min 0 min 0 W/m 3,2 km/h (1 Bft) 97,87 %
27.07.2022 03:22 15,1 C 13,9 C 10,6 C 81 % 1019,7 hPa 0,0 l/m 0 min 0 min 0 W/m 3,2 km/h (1 Bft) 97,87 %
27.07.2022 03:24 15,1 C 13,9 C 10,6 C 81 % 1019,7 hPa 0,0 l/m 0 min 0 min 0 W/m 3,2 km/h (1 Bft) 97,87 %
27.07.2022 03:26 15,1 C 13,9 C 10,6 C 82 % 1019,7 hPa 0,0 l/m 0 min 0 min 0 W/m 3,2 km/h (1 Bft) 97,83 %
27.07.2022 03:28 15,0 C 13,9 C 10,6 C 82 % 1019,8 hPa 0,0 l/m 0 min 0 min 0 W/m 3,2 km/h (1 Bft) 97,87 %
27.07.2022 03:30 15,0 C 13,9 C 10,6 C 82 % 1019,8 hPa 0,0 l/m 0 min 0 min 0 W/m 6,4 km/h (2 Bft) 97,87 %
27.07.2022 03:32 14,9 C 13,9 C 10,6 C 82 % 1019,7 hPa 0,0 l/m 0 min 0 min 0 W/m 3,2 km/h (1 Bft) 97,87 %
27.07.2022 03:34 14,9 C 13,9 C 10,6 C 82 % 1019,8 hPa 0,0 l/m 0 min 0 min 0 W/m 9,7 km/h (2 Bft) 97,87 %
27.07.2022 03:36 14,8 C 13,9 C 10,6 C 82 % 1019,8 hPa 0,0 l/m 0 min 0 min 0 W/m 3,2 km/h (1 Bft) 94,83 %
27.07.2022 03:38 14,8 C 13,9 C 10,6 C 82 % 1019,8 hPa 0,0 l/m 0 min 0 min 0 W/m 3,2 km/h (1 Bft) 100,00 %
27.07.2022 03:40 14,7 C 13,9 C 10,6 C 82 % 1019,7 hPa 0,0 l/m 0 min 0 min 0 W/m 0,0 km/h (0 Bft) 93,62 %
27.07.2022 03:42 14,7 C 13,9 C 10,6 C 82 % 1019,7 hPa 0,0 l/m 0 min 0 min 0 W/m 3,2 km/h (1 Bft) 95,74 %
27.07.2022 03:44 14,7 C 13,9 C 10,6 C 82 % 1019,7 hPa 0,0 l/m 0 min 0 min 0 W/m 6,4 km/h (2 Bft) 95,74 %
27.07.2022 03:46 14,7 C 13,3 C 10,6 C 82 % 1019,7 hPa 0,0 l/m 0 min 0 min 0 W/m 3,2 km/h (1 Bft) 97,87 %
27.07.2022 03:48 14,6 C 13,3 C 10,6 C 83 % 1019,7 hPa 0,0 l/m 0 min 0 min 0 W/m 3,2 km/h (1 Bft) 97,87 %
27.07.2022 03:50 14,6 C 13,3 C 10,6 C 83 % 1019,7 hPa 0,0 l/m 0 min 0 min 0 W/m 3,2 km/h (1 Bft) 93,48 %
27.07.2022 03:52 14,6 C 13,3 C 10,6 C 83 % 1019,6 hPa 0,0 l/m 0 min 0 min 0 W/m 0,0 km/h (0 Bft) 97,87 %
27.07.2022 03:54 14,6 C 13,3 C 10,6 C 83 % 1019,6 hPa 0,0 l/m 0 min 0 min 0 W/m 0,0 km/h (0 Bft) 97,87 %
27.07.2022 03:56 14,5 C 13,3 C 10,0 C 83 % 1019,6 hPa 0,0 l/m 0 min 0 min 0 W/m 0,0 km/h (0 Bft) 100,00 %
27.07.2022 03:58 14,4 C 13,3 C 10,0 C 83 % 1019,6 hPa 0,0 l/m 0 min 0 min 0 W/m 3,2 km/h (1 Bft) 97,87 %
27.07.2022 04:00 14,4 C 13,3 C 10,0 C 83 % 1019,7 hPa 0,0 l/m 0 min 0 min 0 W/m 0,0 km/h (0 Bft) 100,00 %
27.07.2022 04:02 14,3 C 13,3 C 10,0 C 83 % 1019,6 hPa 0,0 l/m 0 min 0 min 0 W/m 3,2 km/h (1 Bft) 100,00 %
27.07.2022 04:04 14,3 C 13,3 C 10,0 C 83 % 1019,6 hPa 0,0 l/m 0 min 0 min 0 W/m 3,2 km/h (1 Bft) 100,00 %
27.07.2022 04:06 14,3 C 13,3 C 10,0 C 83 % 1019,7 hPa 0,0 l/m 0 min 0 min 0 W/m 3,2 km/h (1 Bft) 100,00 %
27.07.2022 04:08 14,3 C 12,8 C 10,0 C 83 % 1019,7 hPa 0,0 l/m 0 min 0 min 0 W/m 0,0 km/h (0 Bft) 100,00 %
27.07.2022 04:10 14,3 C 12,8 C 10,0 C 83 % 1019,7 hPa 0,0 l/m 0 min 0 min 0 W/m 0,0 km/h (0 Bft) 100,00 %
27.07.2022 04:12 14,3 C 12,8 C 10,0 C 84 % 1019,7 hPa 0,0 l/m 0 min 0 min 0 W/m 0,0 km/h (0 Bft) 100,00 %
27.07.2022 04:14 14,3 C 12,8 C 10,0 C 84 % 1019,7 hPa 0,0 l/m 0 min 0 min 0 W/m 0,0 km/h (0 Bft) 100,00 %
27.07.2022 04:16 14,2 C 12,8 C 10,0 C 84 % 1019,7 hPa 0,0 l/m 0 min 0 min 0 W/m 0,0 km/h (0 Bft) 97,87 %
27.07.2022 04:18 14,2 C 12,8 C 10,0 C 84 % 1019,7 hPa 0,0 l/m 0 min 0 min 0 W/m 0,0 km/h (0 Bft) 95,74 %
27.07.2022 04:20 14,2 C 12,8 C 10,0 C 84 % 1019,7 hPa 0,0 l/m 0 min 0 min 0 W/m 0,0 km/h (0 Bft) 97,87 %
27.07.2022 04:22 14,1 C 12,8 C 9,4 C 84 % 1019,6 hPa 0,0 l/m 0 min 0 min 0 W/m 0,0 km/h (0 Bft) 97,87 %
27.07.2022 04:24 14,1 C 12,8 C 9,4 C 84 % 1019,6 hPa 0,0 l/m 0 min 0 min 0 W/m 0,0 km/h (0 Bft) 97,83 %
27.07.2022 04:26 14,0 C 12,8 C 9,4 C 85 % 1019,6 hPa 0,0 l/m 0 min 0 min 0 W/m 0,0 km/h (0 Bft) 100,00 %
27.07.2022 04:28 13,9 C 12,8 C 9,4 C 85 % 1019,7 hPa 0,0 l/m 0 min 0 min 0 W/m 0,0 km/h (0 Bft) 97,87 %
27.07.2022 04:30 13,9 C 12,2 C 9,4 C 85 % 1019,6 hPa 0,0 l/m 0 min 0 min 0 W/m 0,0 km/h (0 Bft) 97,87 %
27.07.2022 04:32 13,9 C 12,2 C 9,4 C 85 % 1019,7 hPa 0,0 l/m 0 min 0 min 0 W/m 0,0 km/h (0 Bft) 97,87 %
27.07.2022 04:34 13,8 C 12,2 C 9,4 C 85 % 1019,7 hPa 0,0 l/m 0 min 0 min 0 W/m 0,0 km/h (0 Bft) 97,87 %
27.07.2022 04:36 13,8 C 12,2 C 9,4 C 85 % 1019,6 hPa 0,0 l/m 0 min 0 min 0 W/m 0,0 km/h (0 Bft) 98,28 %
27.07.2022 04:38 13,8 C 12,2 C 9,4 C 85 % 1019,6 hPa 0,0 l/m 0 min 0 min 0 W/m 0,0 km/h (0 Bft) 97,14 %
27.07.2022 04:40 13,8 C 12,2 C 9,4 C 86 % 1019,6 hPa 0,0 l/m 0 min 0 min 0 W/m 0,0 km/h (0 Bft) 97,87 %
27.07.2022 04:42 13,7 C 12,2 C 9,4 C 86 % 1019,6 hPa 0,0 l/m 0 min 0 min 0 W/m 0,0 km/h (0 Bft) 97,87 %
27.07.2022 04:44 13,7 C 12,2 C 9,4 C 86 % 1019,6 hPa 0,0 l/m 0 min 0 min 0 W/m 0,0 km/h (0 Bft) 100,00 %
27.07.2022 04:46 13,7 C 12,2 C 9,4 C 86 % 1019,6 hPa 0,0 l/m 0 min 0 min 0 W/m 0,0 km/h (0 Bft) 100,00 %
27.07.2022 04:48 13,6 C 12,2 C 9,4 C 86 % 1019,6 hPa 0,0 l/m 0 min 0 min 0 W/m 0,0 km/h (0 Bft) 100,00 %
27.07.2022 04:50 13,6 C 12,2 C 9,4 C 86 % 1019,6 hPa 0,0 l/m 0 min 0 min 0 W/m 0,0 km/h (0 Bft) 100,00 %
27.07.2022 04:52 13,6 C 12,2 C 9,4 C 86 % 1019,5 hPa 0,0 l/m 0 min 0 min 0 W/m 0,0 km/h (0 Bft) 95,74 %
27.07.2022 04:54 13,6 C 12,2 C 9,4 C 86 % 1019,5 hPa 0,0 l/m 0 min 0 min 0 W/m 0,0 km/h (0 Bft) 97,87 %
27.07.2022 04:56 13,5 C 12,2 C 9,4 C 86 % 1019,5 hPa 0,0 l/m 0 min 0 min 0 W/m 0,0 km/h (0 Bft) 97,87 %
27.07.2022 04:58 13,5 C 12,2 C 9,4 C 86 % 1019,6 hPa 0,0 l/m 0 min 0 min 0 W/m 0,0 km/h (0 Bft) 97,87 %
27.07.2022 05:00 13,4 C 12,2 C 9,4 C 86 % 1019,6 hPa 0,0 l/m 0 min 0 min 0 W/m 0,0 km/h (0 Bft) 97,83 %
27.07.2022 05:02 13,4 C 12,2 C 9,4 C 87 % 1019,6 hPa 0,0 l/m 0 min 0 min 0 W/m 0,0 km/h (0 Bft) 95,74 %
27.07.2022 05:04 13,4 C 12,2 C 9,4 C 87 % 1019,6 hPa 0,0 l/m 0 min 0 min 0 W/m 0,0 km/h (0 Bft) 97,87 %
27.07.2022 05:06 13,3 C 12,2 C 9,4 C 87 % 1019,6 hPa 0,0 l/m 0 min 0 min 0 W/m 0,0 km/h (0 Bft) 93,22 %
27.07.2022 05:08 13,3 C 12,2 C 9,4 C 87 % 1019,5 hPa 0,0 l/m 0 min 0 min 0 W/m 0,0 km/h (0 Bft) 100,00 %
27.07.2022 05:10 13,2 C 12,2 C 9,4 C 87 % 1019,5 hPa 0,0 l/m 0 min 0 min 0 W/m 0,0 km/h (0 Bft) 95,74 %
27.07.2022 05:12 13,2 C 11,7 C 9,4 C 87 % 1019,5 hPa 0,0 l/m 0 min 0 min 0 W/m 0,0 km/h (0 Bft) 95,65 %
27.07.2022 05:14 13,2 C 11,7 C 9,4 C 87 % 1019,6 hPa 0,0 l/m 0 min 0 min 0 W/m 0,0 km/h (0 Bft) 95,74 %
27.07.2022 05:16 13,2 C 12,2 C 9,4 C 87 % 1019,6 hPa 0,0 l/m 0 min 0 min 0 W/m 0,0 km/h (0 Bft) 97,87 %
27.07.2022 05:18 13,1 C 11,7 C 8,9 C 87 % 1019,6 hPa 0,0 l/m 0 min 0 min 0 W/m 0,0 km/h (0 Bft) 97,87 %
27.07.2022 05:20 13,1 C 11,7 C 8,9 C 87 % 1019,6 hPa 0,0 l/m 0 min 0 min 0 W/m 0,0 km/h (0 Bft) 97,87 %
27.07.2022 05:22 13,1 C 11,7 C 8,9 C 87 % 1019,6 hPa 0,0 l/m 0 min 0 min 0 W/m 0,0 km/h (0 Bft) 97,87 %
27.07.2022 05:24 13,0 C 11,7 C 8,9 C 87 % 1019,6 hPa 0,0 l/m 0 min 0 min 0 W/m 0,0 km/h (0 Bft) 95,65 %
27.07.2022 05:26 12,9 C 11,7 C 8,9 C 87 % 1019,6 hPa 0,0 l/m 0 min 0 min 0 W/m 0,0 km/h (0 Bft) 95,74 %
27.07.2022 05:28 12,9 C 11,7 C 8,9 C 87 % 1019,6 hPa 0,0 l/m 0 min 0 min 0 W/m 0,0 km/h (0 Bft) 93,62 %
27.07.2022 05:30 12,9 C 11,7 C 8,9 C 87 % 1019,6 hPa 0,0 l/m 0 min 0 min 0 W/m 0,0 km/h (0 Bft) 95,74 %
27.07.2022 05:32 12,9 C 11,7 C 8,9 C 87 % 1019,7 hPa 0,0 l/m 0 min 0 min 0 W/m 0,0 km/h (0 Bft) 97,87 %
27.07.2022 05:34 12,8 C 11,7 C 8,9 C 88 % 1019,7 hPa 0,0 l/m 0 min 0 min 0 W/m 0,0 km/h (0 Bft) 95,74 %
27.07.2022 05:36 12,8 C 11,7 C 8,9 C 88 % 1019,7 hPa 0,0 l/m 0 min 0 min 0 W/m 0,0 km/h (0 Bft) 96,55 %
27.07.2022 05:38 12,8 C 11,7 C 8,9 C 88 % 1019,6 hPa 0,0 l/m 0 min 0 min 0 W/m 3,2 km/h (1 Bft) 94,29 %
27.07.2022 05:40 12,8 C 11,7 C 8,9 C 88 % 1019,7 hPa 0,0 l/m 0 min 0 min 0 W/m 3,2 km/h (1 Bft) 56,52 %
27.07.2022 05:42 12,7 C 11,7 C 8,3 C 88 % 1019,7 hPa 0,0 l/m 0 min 0 min 0 W/m 3,2 km/h (1 Bft) 95,74 %
27.07.2022 05:44 12,7 C 11,7 C 8,3 C 88 % 1019,8 hPa 0,0 l/m 0 min 0 min 0 W/m 3,2 km/h (1 Bft) 93,62 %
27.07.2022 05:46 12,7 C 11,7 C 8,3 C 88 % 1019,8 hPa 0,0 l/m 0 min 0 min 0 W/m 3,2 km/h (1 Bft) 93,62 %
27.07.2022 05:48 12,6 C 11,7 C 8,3 C 88 % 1019,8 hPa 0,0 l/m 0 min 0 min 0 W/m 3,2 km/h (1 Bft) 95,65 %
27.07.2022 05:50 12,6 C 11,7 C 8,3 C 88 % 1019,8 hPa 0,0 l/m 0 min 0 min 0 W/m 3,2 km/h (1 Bft) 95,74 %
27.07.2022 05:52 12,6 C 11,7 C 8,3 C 88 % 1019,8 hPa 0,0 l/m 0 min 0 min 0 W/m 0,0 km/h (0 Bft) 93,62 %
27.07.2022 05:54 12,6 C 11,7 C 8,9 C 88 % 1019,8 hPa 0,0 l/m 0 min 0 min 0 W/m 0,0 km/h (0 Bft) 93,62 %
27.07.2022 05:56 12,6 C 11,7 C 8,9 C 89 % 1019,8 hPa 0,0 l/m 0 min 0 min 0 W/m 3,2 km/h (1 Bft) 91,49 %
27.07.2022 05:58 12,6 C 11,7 C 8,9 C 89 % 1019,7 hPa 0,0 l/m 0 min 0 min 3 W/m 3,2 km/h (1 Bft) 93,62 %
27.07.2022 06:00 12,5 C 11,7 C 8,3 C 89 % 1019,7 hPa 0,0 l/m 0 min 0 min 5 W/m 3,2 km/h (1 Bft) 95,65 %
27.07.2022 06:02 12,5 C 11,7 C 8,3 C 89 % 1019,7 hPa 0,0 l/m 0 min 0 min 5 W/m 0,0 km/h (0 Bft) 93,62 %
27.07.2022 06:04 12,4 C 11,7 C 8,3 C 89 % 1019,8 hPa 0,0 l/m 0 min 0 min 5 W/m 0,0 km/h (0 Bft) 95,74 %
27.07.2022 06:08 12,4 C 11,7 C 8,3 C 89 % 1019,8 hPa 0,0 l/m 0 min 0 min 7 W/m 3,2 km/h (1 Bft) 93,62 %
27.07.2022 06:10 12,4 C 11,7 C 8,3 C 89 % 1019,8 hPa 0,0 l/m 0 min 0 min 8 W/m 0,0 km/h (0 Bft) 95,74 %
27.07.2022 06:12 12,4 C 11,7 C 8,9 C 89 % 1019,9 hPa 0,0 l/m 0 min 0 min 9 W/m 0,0 km/h (0 Bft) 95,65 %
27.07.2022 06:14 12,4 C 11,7 C 8,9 C 89 % 1019,9 hPa 0,0 l/m 0 min 0 min 9 W/m 0,0 km/h (0 Bft) 93,62 %
27.07.2022 06:16 12,4 C 11,7 C 8,9 C 89 % 1019,9 hPa 0,0 l/m 0 min 0 min 11 W/m 0,0 km/h (0 Bft) 93,62 %
27.07.2022 06:18 12,4 C 11,7 C 8,9 C 90 % 1019,9 hPa 0,0 l/m 0 min 0 min 11 W/m 0,0 km/h (0 Bft) 95,74 %
27.07.2022 06:20 12,4 C 11,7 C 8,9 C 90 % 1019,9 hPa 0,0 l/m 0 min 0 min 12 W/m 0,0 km/h (0 Bft) 100,00 %
27.07.2022 06:22 12,3 C 11,7 C 8,9 C 90 % 1019,9 hPa 0,0 l/m 0 min 0 min 13 W/m 0,0 km/h (0 Bft) 100,00 %
27.07.2022 06:24 12,4 C 11,7 C 8,9 C 90 % 1020,0 hPa 0,0 l/m 0 min 0 min 15 W/m 0,0 km/h (0 Bft) 95,65 %
27.07.2022 06:26 12,4 C 11,7 C 8,9 C 90 % 1020,0 hPa 0,0 l/m 0 min 0 min 18 W/m 0,0 km/h (0 Bft) 97,87 %
27.07.2022 06:28 12,4 C 11,7 C 8,9 C 90 % 1020,0 hPa 0,0 l/m 0 min 0 min 22 W/m 3,2 km/h (1 Bft) 97,87 %
27.07.2022 06:30 12,4 C 11,7 C 8,9 C 90 % 1020,0 hPa 0,0 l/m 0 min 0 min 25 W/m 0,0 km/h (0 Bft) 100,00 %
27.07.2022 06:32 12,4 C 11,7 C 8,9 C 90 % 1020,0 hPa 0,0 l/m 0 min 0 min 27 W/m 0,0 km/h (0 Bft) 97,87 %
27.07.2022 06:34 12,4 C 11,7 C 8,9 C 90 % 1020,0 hPa 0,0 l/m 0 min 0 min 28 W/m 0,0 km/h (0 Bft) 100,00 %
27.07.2022 06:36 12,4 C 11,7 C 8,9 C 90 % 1020,0 hPa 0,0 l/m 0 min 0 min 30 W/m 0,0 km/h (0 Bft) 100,00 %
27.07.2022 06:38 12,4 C 12,2 C 8,9 C 90 % 1020,1 hPa 0,0 l/m 0 min 0 min 32 W/m 0,0 km/h (0 Bft) 97,87 %
27.07.2022 06:40 12,5 C 12,2 C 8,9 C 90 % 1020,1 hPa 0,0 l/m 0 min 0 min 34 W/m 3,2 km/h (1 Bft) 100,00 %
27.07.2022 06:42 12,5 C 12,2 C 8,9 C 90 % 1020,1 hPa 0,0 l/m 0 min 0 min 39 W/m 3,2 km/h (1 Bft) 100,00 %
27.07.2022 06:44 12,6 C 12,2 C 8,9 C 90 % 1020,0 hPa 0,0 l/m 0 min 0 min 41 W/m 3,2 km/h (1 Bft) 100,00 %
27.07.2022 06:46 12,6 C 12,2 C 8,9 C 90 % 1020,0 hPa 0,0 l/m 0 min 0 min 43 W/m 0,0 km/h (0 Bft) 97,87 %
27.07.2022 06:48 12,6 C 12,2 C 9,4 C 90 % 1020,0 hPa 0,0 l/m 0 min 0 min 45 W/m 0,0 km/h (0 Bft) 100,00 %
27.07.2022 06:50 12,7 C 12,2 C 9,4 C 90 % 1020,1 hPa 0,0 l/m 0 min 0 min 46 W/m 6,4 km/h (2 Bft) 100,00 %
27.07.2022 06:52 12,7 C 12,2 C 9,4 C 90 % 1020,1 hPa 0,0 l/m 0 min 0 min 44 W/m 3,2 km/h (1 Bft) 97,87 %
27.07.2022 06:54 12,7 C 12,2 C 9,4 C 90 % 1020,1 hPa 0,0 l/m 0 min 0 min 40 W/m 6,4 km/h (2 Bft) 100,00 %
27.07.2022 06:56 12,7 C 12,2 C 9,4 C 90 % 1020,1 hPa 0,0 l/m 0 min 0 min 34 W/m 6,4 km/h (2 Bft) 97,87 %
27.07.2022 06:58 12,8 C 12,2 C 9,4 C 90 % 1020,1 hPa 0,0 l/m 0 min 0 min 27 W/m 6,4 km/h (2 Bft) 100,00 %
27.07.2022 07:00 12,7 C 12,2 C 9,4 C 90 % 1020,1 hPa 0,0 l/m 0 min 0 min 24 W/m 6,4 km/h (2 Bft) 100,00 %
27.07.2022 07:02 12,8 C 12,2 C 9,4 C 91 % 1020,1 hPa 0,0 l/m 0 min 0 min 21 W/m 3,2 km/h (1 Bft) 100,00 %
27.07.2022 07:04 12,8 C 12,2 C 9,4 C 90 % 1020,1 hPa 0,0 l/m 0 min 0 min 21 W/m 3,2 km/h (1 Bft) 100,00 %
27.07.2022 07:06 12,8 C 12,2 C 8,9 C 91 % 1020,1 hPa 0,0 l/m 0 min 0 min 21 W/m 3,2 km/h (1 Bft) 100,00 %
27.07.2022 07:08 12,8 C 12,2 C 8,9 C 90 % 1020,2 hPa 0,0 l/m 0 min 0 min 21 W/m 3,2 km/h (1 Bft) 100,00 %
27.07.2022 07:10 12,8 C 12,2 C 8,9 C 90 % 1020,2 hPa 0,0 l/m 0 min 0 min 23 W/m 3,2 km/h (1 Bft) 100,00 %
27.07.2022 07:12 12,8 C 12,2 C 8,9 C 90 % 1020,1 hPa 0,0 l/m 0 min 0 min 24 W/m 3,2 km/h (1 Bft) 100,00 %
27.07.2022 07:14 12,8 C 12,2 C 8,9 C 90 % 1020,2 hPa 0,0 l/m 0 min 0 min 25 W/m 6,4 km/h (2 Bft) 97,87 %
27.07.2022 07:16 12,8 C 12,2 C 9,4 C 90 % 1020,2 hPa 0,0 l/m 0 min 0 min 25 W/m 3,2 km/h (1 Bft) 100,00 %
27.07.2022 07:18 12,8 C 12,2 C 9,4 C 90 % 1020,2 hPa 0,0 l/m 0 min 0 min 25 W/m 3,2 km/h (1 Bft) 100,00 %
27.07.2022 07:20 12,8 C 12,2 C 9,4 C 90 % 1020,3 hPa 0,0 l/m 0 min 0 min 26 W/m 6,4 km/h (2 Bft) 100,00 %
27.07.2022 07:22 12,8 C 12,2 C 9,4 C 90 % 1020,2 hPa 0,0 l/m 0 min 0 min 26 W/m 6,4 km/h (2 Bft) 100,00 %
27.07.2022 07:24 12,8 C 12,2 C 9,4 C 90 % 1020,2 hPa 0,0 l/m 0 min 0 min 26 W/m 6,4 km/h (2 Bft) 100,00 %
27.07.2022 07:26 12,8 C 12,2 C 9,4 C 91 % 1020,2 hPa 0,0 l/m 0 min 0 min 26 W/m 6,4 km/h (2 Bft) 100,00 %
27.07.2022 07:28 12,8 C 12,8 C 9,4 C 91 % 1020,3 hPa 0,0 l/m 0 min 0 min 28 W/m 6,4 km/h (2 Bft) 100,00 %
27.07.2022 07:30 12,8 C 12,8 C 9,4 C 91 % 1020,3 hPa 0,0 l/m 0 min 0 min 28 W/m 6,4 km/h (2 Bft) 95,74 %
27.07.2022 07:32 12,8 C 12,8 C 9,4 C 91 % 1020,3 hPa 0,0 l/m 0 min 0 min 28 W/m 6,4 km/h (2 Bft) 95,74 %
27.07.2022 07:34 12,9 C 12,8 C 9,4 C 91 % 1020,3 hPa 0,0 l/m 0 min 0 min 30 W/m 6,4 km/h (2 Bft) 97,83 %
27.07.2022 07:36 12,9 C 12,8 C 9,4 C 91 % 1020,3 hPa 0,0 l/m 0 min 0 min 30 W/m 9,7 km/h (2 Bft) 97,87 %
27.07.2022 07:38 12,9 C 12,8 C 9,4 C 91 % 1020,3 hPa 0,0 l/m 0 min 0 min 30 W/m 6,4 km/h (2 Bft) 97,87 %
27.07.2022 07:40 12,9 C 12,8 C 9,4 C 91 % 1020,4 hPa 0,0 l/m 0 min 0 min 32 W/m 9,7 km/h (2 Bft) 97,87 %
27.07.2022 07:42 12,9 C 12,8 C 9,4 C 91 % 1020,4 hPa 0,0 l/m 0 min 0 min 32 W/m 6,4 km/h (2 Bft) 97,87 %
27.07.2022 07:44 13,0 C 12,8 C 9,4 C 91 % 1020,4 hPa 0,0 l/m 0 min 0 min 33 W/m 6,4 km/h (2 Bft) 97,87 %
27.07.2022 07:46 13,1 C 13,3 C 10,0 C 91 % 1020,5 hPa 0,0 l/m 0 min 0 min 33 W/m 0,0 km/h (0 Bft) 93,62 %
27.07.2022 07:48 13,1 C 13,3 C 10,0 C 91 % 1020,5 hPa 0,0 l/m 0 min 0 min 33 W/m 0,0 km/h (0 Bft) 95,65 %
27.07.2022 07:50 13,2 C 13,3 C 10,0 C 91 % 1020,5 hPa 0,0 l/m 0 min 0 min 35 W/m 0,0 km/h (0 Bft) 97,87 %
27.07.2022 07:52 13,2 C 13,3 C 10,0 C 91 % 1020,5 hPa 0,0 l/m 0 min 0 min 35 W/m 3,2 km/h (1 Bft) 95,74 %
27.07.2022 07:54 13,2 C 13,3 C 10,0 C 91 % 1020,5 hPa 0,0 l/m 0 min 0 min 36 W/m 6,4 km/h (2 Bft) 97,87 %
27.07.2022 07:56 13,3 C 13,3 C 10,0 C 91 % 1020,5 hPa 0,0 l/m 0 min 0 min 37 W/m 6,4 km/h (2 Bft) 97,87 %
27.07.2022 07:58 13,3 C 13,3 C 10,0 C 91 % 1020,5 hPa 0,0 l/m 0 min 0 min 37 W/m 6,4 km/h (2 Bft) 97,87 %
27.07.2022 08:00 13,3 C 13,3 C 10,0 C 91 % 1020,5 hPa 0,0 l/m 0 min 0 min 39 W/m 6,4 km/h (2 Bft) 100,00 %
27.07.2022 08:02 13,4 C 13,9 C 10,6 C 91 % 1020,5 hPa 0,0 l/m 0 min 0 min 39 W/m 6,4 km/h (2 Bft) 57,45 %
27.07.2022 08:04 13,4 C 13,9 C 10,6 C 90 % 1020,5 hPa 0,0 l/m 0 min 0 min 69 W/m 6,4 km/h (2 Bft) 100,00 %
27.07.2022 08:06 13,5 C 13,9 C 10,6 C 90 % 1020,5 hPa 0,0 l/m 2 min 0 min 214 W/m 9,7 km/h (2 Bft) 95,74 %
27.07.2022 08:08 13,6 C 13,9 C 10,6 C 90 % 1020,5 hPa 0,0 l/m 2 min 0 min 276 W/m 6,4 km/h (2 Bft) 97,87 %
27.07.2022 08:10 13,6 C 13,9 C 10,6 C 90 % 1020,5 hPa 0,0 l/m 2 min 0 min 282 W/m 9,7 km/h (2 Bft) 95,65 %
27.07.2022 08:12 13,7 C 13,9 C 10,6 C 90 % 1020,5 hPa 0,0 l/m 2 min 0 min 288 W/m 6,4 km/h (2 Bft) 95,74 %
27.07.2022 08:14 13,7 C 13,9 C 10,6 C 90 % 1020,5 hPa 0,0 l/m 2 min 0 min 295 W/m 9,7 km/h (2 Bft) 97,87 %
27.07.2022 08:16 13,8 C 13,9 C 10,6 C 89 % 1020,5 hPa 0,0 l/m 2 min 0 min 265 W/m 3,2 km/h (1 Bft) 97,87 %
27.07.2022 08:18 13,9 C 14,4 C 10,6 C 89 % 1020,5 hPa 0,0 l/m 2 min 0 min 196 W/m 6,4 km/h (2 Bft) 100,00 %
27.07.2022 08:20 14,0 C 14,4 C 10,6 C 89 % 1020,5 hPa 0,0 l/m 2 min 0 min 263 W/m 3,2 km/h (1 Bft) 95,74 %
27.07.2022 08:22 14,1 C 14,4 C 10,6 C 88 % 1020,5 hPa 0,0 l/m 2 min 0 min 302 W/m 6,4 km/h (2 Bft) 100,00 %
27.07.2022 08:24 14,3 C 15,0 C 11,1 C 88 % 1020,5 hPa 0,0 l/m 2 min 0 min 329 W/m 3,2 km/h (1 Bft) 95,74 %
27.07.2022 08:26 14,3 C 15,6 C 11,1 C 88 % 1020,5 hPa 0,0 l/m 2 min 0 min 335 W/m 6,4 km/h (2 Bft) 95,74 %
27.07.2022 08:28 14,4 C 16,1 C 11,1 C 87 % 1020,6 hPa 0,0 l/m 2 min 0 min 341 W/m 3,2 km/h (1 Bft) 95,74 %
27.07.2022 08:30 14,6 C 17,2 C 11,1 C 87 % 1020,5 hPa 0,0 l/m 2 min 0 min 347 W/m 6,4 km/h (2 Bft) 95,74 %
27.07.2022 08:32 14,7 C 17,8 C 11,1 C 86 % 1020,6 hPa 0,0 l/m 2 min 0 min 353 W/m 9,7 km/h (2 Bft) 93,62 %
27.07.2022 08:34 14,8 C 18,9 C 11,1 C 86 % 1020,6 hPa 0,0 l/m 2 min 0 min 359 W/m 6,4 km/h (2 Bft) 95,65 %
27.07.2022 08:36 15,0 C 19,4 C 11,1 C 85 % 1020,5 hPa 0,0 l/m 2 min 0 min 365 W/m 3,2 km/h (1 Bft) 97,87 %
27.07.2022 08:38 15,1 C 19,4 C 11,1 C 85 % 1020,5 hPa 0,0 l/m 2 min 0 min 371 W/m 9,7 km/h (2 Bft) 93,62 %
27.07.2022 08:40 15,2 C 19,4 C 11,7 C 84 % 1020,5 hPa 0,0 l/m 2 min 0 min 378 W/m 6,4 km/h (2 Bft) 95,74 %
27.07.2022 08:42 15,4 C 18,9 C 11,7 C 83 % 1020,6 hPa 0,0 l/m 2 min 0 min 383 W/m 6,4 km/h (2 Bft) 93,62 %
27.07.2022 08:44 15,6 C 19,4 C 11,7 C 83 % 1020,6 hPa 0,0 l/m 2 min 0 min 390 W/m 9,7 km/h (2 Bft) 95,74 %
27.07.2022 08:46 15,7 C 20,0 C 11,7 C 82 % 1020,6 hPa 0,0 l/m 2 min 0 min 396 W/m 6,4 km/h (2 Bft) 95,65 %
27.07.2022 08:48 15,9 C 20,6 C 11,7 C 81 % 1020,6 hPa 0,0 l/m 2 min 0 min 402 W/m 6,4 km/h (2 Bft) 95,74 %
27.07.2022 08:50 16,1 C 20,0 C 12,2 C 80 % 1020,6 hPa 0,0 l/m 2 min 0 min 410 W/m 9,7 km/h (2 Bft) 95,74 %
27.07.2022 08:52 16,2 C 20,6 C 12,2 C 79 % 1020,5 hPa 0,0 l/m 2 min 0 min 417 W/m 3,2 km/h (1 Bft) 95,74 %
27.07.2022 08:54 16,4 C 21,7 C 12,2 C 78 % 1020,5 hPa 0,0 l/m 2 min 0 min 429 W/m 9,7 km/h (2 Bft) 95,74 %
27.07.2022 08:56 16,6 C 21,7 C 12,8 C 78 % 1020,5 hPa 0,0 l/m 2 min 0 min 430 W/m 12,9 km/h (3 Bft) 91,49 %
27.07.2022 08:58 16,8 C 22,2 C 12,8 C 77 % 1020,5 hPa 0,0 l/m 2 min 0 min 432 W/m 9,7 km/h (2 Bft) 95,65 %
27.07.2022 09:00 16,9 C 22,2 C 12,8 C 75 % 1020,5 hPa 0,0 l/m 2 min 0 min 442 W/m 3,2 km/h (1 Bft) 95,74 %
27.07.2022 09:02 16,9 C 21,7 C 12,8 C 75 % 1020,5 hPa 0,0 l/m 2 min 0 min 432 W/m 6,4 km/h (2 Bft) 95,74 %
27.07.2022 09:04 16,9 C 21,1 C 12,8 C 74 % 1020,6 hPa 0,0 l/m 2 min 0 min 442 W/m 6,4 km/h (2 Bft) 97,87 %
27.07.2022 09:06 17,1 C 22,2 C 13,3 C 75 % 1020,5 hPa 0,0 l/m 2 min 0 min 462 W/m 12,9 km/h (3 Bft) 97,87 %
27.07.2022 09:08 17,2 C 23,3 C 13,9 C 75 % 1020,5 hPa 0,0 l/m 2 min 0 min 474 W/m 12,9 km/h (3 Bft) 97,87 %
27.07.2022 09:10 17,4 C 23,3 C 14,4 C 74 % 1020,6 hPa 0,0 l/m 2 min 0 min 488 W/m 9,7 km/h (2 Bft) 95,65 %
27.07.2022 09:12 17,6 C 24,4 C 15,0 C 73 % 1020,6 hPa 0,0 l/m 2 min 0 min 512 W/m 6,4 km/h (2 Bft) 95,74 %
27.07.2022 09:14 17,7 C 23,3 C 15,0 C 72 % 1020,7 hPa 0,0 l/m 2 min 0 min 530 W/m 6,4 km/h (2 Bft) 97,87 %
27.07.2022 09:16 17,8 C 21,7 C 14,4 C 72 % 1020,7 hPa 0,0 l/m 0 min 0 min 164 W/m 9,7 km/h (2 Bft) 97,87 %
27.07.2022 09:18 17,7 C 22,2 C 14,4 C 71 % 1020,7 hPa 0,0 l/m 2 min 0 min 352 W/m 6,4 km/h (2 Bft) 97,87 %
27.07.2022 09:20 17,7 C 23,3 C 15,0 C 72 % 1020,7 hPa 0,0 l/m 2 min 0 min 538 W/m 12,9 km/h (3 Bft) 97,87 %
27.07.2022 09:22 17,8 C 24,4 C 15,6 C 72 % 1020,7 hPa 0,0 l/m 2 min 0 min 543 W/m 12,9 km/h (3 Bft) 95,65 %
27.07.2022 09:24 17,9 C 24,4 C 15,6 C 71 % 1020,7 hPa 0,0 l/m 2 min 0 min 527 W/m 6,4 km/h (2 Bft) 95,74 %
27.07.2022 09:26 17,9 C 24,4 C 16,1 C 70 % 1020,7 hPa 0,0 l/m 2 min 0 min 564 W/m 12,9 km/h (3 Bft) 97,87 %
27.07.2022 09:28 17,9 C 23,3 C 16,1 C 70 % 1020,7 hPa 0,0 l/m 2 min 0 min 591 W/m 6,4 km/h (2 Bft) 95,74 %
27.07.2022 09:30 17,9 C 23,9 C 16,1 C 71 % 1020,6 hPa 0,0 l/m 2 min 0 min 606 W/m 19,3 km/h (3 Bft) 95,74 %
27.07.2022 09:32 18,0 C 23,3 C 16,1 C 71 % 1020,6 hPa 0,0 l/m 2 min 0 min 635 W/m 9,7 km/h (2 Bft) 95,74 %
27.07.2022 09:34 18,1 C 23,9 C 16,1 C 70 % 1020,7 hPa 0,0 l/m 2 min 0 min 613 W/m 12,9 km/h (3 Bft) 95,65 %
27.07.2022 09:36 18,1 C 22,8 C 16,1 C 70 % 1020,7 hPa 0,0 l/m 2 min 0 min 602 W/m 12,9 km/h (3 Bft) 95,74 %
27.07.2022 09:38 17,9 C 22,2 C 15,6 C 71 % 1020,7 hPa 0,0 l/m 2 min 0 min 601 W/m 6,4 km/h (2 Bft) 95,74 %
27.07.2022 09:40 17,9 C 21,7 C 15,0 C 71 % 1020,6 hPa 0,0 l/m 2 min 0 min 599 W/m 6,4 km/h (2 Bft) 93,62 %
27.07.2022 09:42 17,9 C 22,2 C 15,6 C 71 % 1020,7 hPa 0,0 l/m 2 min 0 min 540 W/m 12,9 km/h (3 Bft) 95,74 %
27.07.2022 09:44 17,9 C 22,2 C 16,1 C 71 % 1020,7 hPa 0,0 l/m 2 min 0 min 577 W/m 9,7 km/h (2 Bft) 95,74 %
27.07.2022 09:46 18,0 C 22,2 C 16,1 C 71 % 1020,7 hPa 0,0 l/m 2 min 0 min 612 W/m 12,9 km/h (3 Bft) 95,65 %
27.07.2022 09:48 18,0 C 22,2 C 16,1 C 71 % 1020,7 hPa 0,0 l/m 2 min 0 min 671 W/m 9,7 km/h (2 Bft) 95,74 %
27.07.2022 09:50 17,9 C 21,1 C 15,6 C 70 % 1020,7 hPa 0,0 l/m 2 min 0 min 671 W/m 16,1 km/h (3 Bft) 95,74 %
27.07.2022 09:52 17,9 C 20,6 C 15,0 C 70 % 1020,8 hPa 0,0 l/m 2 min 0 min 636 W/m 12,9 km/h (3 Bft) 97,87 %
27.07.2022 09:54 17,7 C 18,9 C 14,4 C 69 % 1020,7 hPa 0,0 l/m 0 min 0 min 106 W/m 12,9 km/h (3 Bft) 97,87 %
27.07.2022 09:56 17,6 C 18,9 C 13,9 C 70 % 1020,8 hPa 0,0 l/m 0 min 0 min 139 W/m 12,9 km/h (3 Bft) 97,87 %
27.07.2022 09:58 17,6 C 18,9 C 13,9 C 71 % 1020,7 hPa 0,0 l/m 0 min 0 min 199 W/m 12,9 km/h (3 Bft) 97,83 %
27.07.2022 10:00 17,6 C 20,0 C 13,9 C 71 % 1020,7 hPa 0,0 l/m 2 min 0 min 312 W/m 9,7 km/h (2 Bft) 97,87 %
27.07.2022 10:02 17,7 C 21,1 C 13,9 C 71 % 1020,7 hPa 0,0 l/m 2 min 0 min 700 W/m 9,7 km/h (2 Bft) 95,74 %
27.07.2022 10:04 17,8 C 21,1 C 13,9 C 70 % 1020,7 hPa 0,0 l/m 2 min 0 min 701 W/m 6,4 km/h (2 Bft) 100,00 %
27.07.2022 10:06 17,8 C 20,0 C 13,9 C 70 % 1020,8 hPa 0,0 l/m 2 min 0 min 337 W/m 6,4 km/h (2 Bft) 100,00 %
27.07.2022 10:08 17,7 C 19,4 C 13,9 C 69 % 1020,7 hPa 0,0 l/m 0 min 0 min 146 W/m 9,7 km/h (2 Bft) 100,00 %
27.07.2022 10:10 17,7 C 18,9 C 13,9 C 70 % 1020,8 hPa 0,0 l/m 0 min 0 min 146 W/m 6,4 km/h (2 Bft) 100,00 %
27.07.2022 10:12 17,6 C 18,3 C 13,9 C 69 % 1020,8 hPa 0,0 l/m 0 min 0 min 142 W/m 6,4 km/h (2 Bft) 100,00 %
27.07.2022 10:14 17,6 C 18,9 C 13,9 C 68 % 1020,8 hPa 0,0 l/m 2 min 0 min 370 W/m 12,9 km/h (3 Bft) 100,00 %
27.07.2022 10:16 17,6 C 19,4 C 13,9 C 69 % 1020,7 hPa 0,0 l/m 2 min 0 min 737 W/m 12,9 km/h (3 Bft) 97,87 %
27.07.2022 10:18 17,6 C 20,0 C 13,9 C 69 % 1020,8 hPa 0,0 l/m 2 min 0 min 737 W/m 12,9 km/h (3 Bft) 100,00 %
27.07.2022 10:20 17,7 C 19,4 C 13,9 C 69 % 1020,8 hPa 0,0 l/m 0 min 0 min 272 W/m 6,4 km/h (2 Bft) 100,00 %
27.07.2022 10:22 17,7 C 18,9 C 13,9 C 68 % 1020,8 hPa 0,0 l/m 0 min 0 min 199 W/m 9,7 km/h (2 Bft) 100,00 %
27.07.2022 10:24 17,7 C 18,9 C 13,9 C 68 % 1020,9 hPa 0,0 l/m 0 min 0 min 228 W/m 9,7 km/h (2 Bft) 100,00 %
27.07.2022 10:26 17,7 C 18,9 C 13,9 C 69 % 1020,8 hPa 0,0 l/m 2 min 0 min 359 W/m 12,9 km/h (3 Bft) 97,87 %
27.07.2022 10:28 17,7 C 18,3 C 13,9 C 69 % 1020,8 hPa 0,0 l/m 0 min 0 min 270 W/m 9,7 km/h (2 Bft) 100,00 %
27.07.2022 10:30 17,7 C 18,3 C 13,9 C 69 % 1020,8 hPa 0,0 l/m 0 min 0 min 213 W/m 12,9 km/h (3 Bft) 100,00 %
27.07.2022 10:32 17,7 C 18,3 C 13,9 C 69 % 1020,8 hPa 0,0 l/m 0 min 0 min 223 W/m 12,9 km/h (3 Bft) 100,00 %
27.07.2022 10:34 17,7 C 18,3 C 13,9 C 70 % 1020,9 hPa 0,0 l/m 0 min 0 min 209 W/m 6,4 km/h (2 Bft) 100,00 %
27.07.2022 10:36 17,7 C 18,3 C 13,9 C 69 % 1020,9 hPa 0,0 l/m 0 min 0 min 197 W/m 12,9 km/h (3 Bft) 100,00 %
27.07.2022 10:38 17,7 C 17,8 C 13,9 C 69 % 1020,9 hPa 0,0 l/m 0 min 0 min 193 W/m 16,1 km/h (3 Bft) 100,00 %
27.07.2022 10:40 17,7 C 17,8 C 13,9 C 69 % 1020,9 hPa 0,0 l/m 0 min 0 min 182 W/m 6,4 km/h (2 Bft) 97,87 %
27.07.2022 10:42 17,7 C 17,8 C 13,9 C 69 % 1020,9 hPa 0,0 l/m 0 min 0 min 175 W/m 6,4 km/h (2 Bft) 100,00 %
27.07.2022 10:44 17,6 C 17,8 C 13,9 C 69 % 1020,9 hPa 0,0 l/m 0 min 0 min 180 W/m 9,7 km/h (2 Bft) 100,00 %
27.07.2022 10:46 17,6 C 17,8 C 13,9 C 69 % 1020,9 hPa 0,0 l/m 0 min 0 min 185 W/m 6,4 km/h (2 Bft) 100,00 %
27.07.2022 10:48 17,6 C 17,8 C 13,9 C 70 % 1020,9 hPa 0,0 l/m 0 min 0 min 178 W/m 9,7 km/h (2 Bft) 100,00 %
27.07.2022 10:50 17,6 C 17,8 C 13,9 C 69 % 1020,9 hPa 0,0 l/m 0 min 0 min 174 W/m 6,4 km/h (2 Bft) 100,00 %
27.07.2022 10:52 17,6 C 17,8 C 13,9 C 70 % 1020,9 hPa 0,0 l/m 0 min 0 min 222 W/m 3,2 km/h (1 Bft) 100,00 %
27.07.2022 10:54 17,6 C 18,3 C 13,9 C 69 % 1020,9 hPa 0,0 l/m 0 min 0 min 279 W/m 6,4 km/h (2 Bft) 100,00 %
27.07.2022 10:56 17,6 C 18,3 C 14,4 C 69 % 1020,9 hPa 0,0 l/m 2 min 0 min 835 W/m 12,9 km/h (3 Bft) 95,74 %
27.07.2022 10:58 17,8 C 19,4 C 15,0 C 70 % 1020,9 hPa 0,0 l/m 2 min 0 min 929 W/m 6,4 km/h (2 Bft) 93,48 %
27.07.2022 11:00 18,0 C 20,6 C 16,1 C 69 % 1020,9 hPa 0,0 l/m 2 min 0 min 937 W/m 9,7 km/h (2 Bft) 97,87 %
27.07.2022 11:02 18,3 C 20,6 C 16,1 C 68 % 1020,9 hPa 0,0 l/m 2 min 0 min 910 W/m 16,1 km/h (3 Bft) 97,87 %
27.07.2022 11:04 18,4 C 20,6 C 15,6 C 68 % 1020,9 hPa 0,0 l/m 0 min 0 min 287 W/m 16,1 km/h (3 Bft) 97,87 %
27.07.2022 11:06 18,5 C 19,4 C 15,0 C 68 % 1020,9 hPa 0,0 l/m 0 min 0 min 287 W/m 19,3 km/h (3 Bft) 98,08 %
27.07.2022 11:08 18,5 C 18,9 C 14,4 C 68 % 1020,9 hPa 0,0 l/m 0 min 0 min 169 W/m 16,1 km/h (3 Bft) 97,62 %
27.07.2022 11:10 18,4 C 18,3 C 14,4 C 68 % 1020,9 hPa 0,0 l/m 0 min 0 min 163 W/m 19,3 km/h (3 Bft) 97,83 %
27.07.2022 11:12 18,3 C 18,3 C 14,4 C 69 % 1020,9 hPa 0,0 l/m 0 min 0 min 172 W/m 16,1 km/h (3 Bft) 97,87 %
27.07.2022 11:14 18,2 C 17,8 C 14,4 C 69 % 1020,9 hPa 0,0 l/m 0 min 0 min 182 W/m 22,5 km/h (4 Bft) 95,74 %
27.07.2022 11:16 18,1 C 17,8 C 13,9 C 69 % 1020,9 hPa 0,0 l/m 0 min 0 min 192 W/m 12,9 km/h (3 Bft) 97,87 %
27.07.2022 11:18 18,1 C 17,8 C 13,9 C 69 % 1021,0 hPa 0,0 l/m 0 min 0 min 197 W/m 16,1 km/h (3 Bft) 97,87 %
27.07.2022 11:20 18,0 C 17,8 C 13,9 C 69 % 1021,0 hPa 0,0 l/m 0 min 0 min 205 W/m 9,7 km/h (2 Bft) 97,87 %
27.07.2022 11:22 17,9 C 17,8 C 13,9 C 70 % 1021,0 hPa 0,0 l/m 0 min 0 min 205 W/m 12,9 km/h (3 Bft) 95,65 %
27.07.2022 11:24 17,8 C 17,8 C 13,9 C 69 % 1021,0 hPa 0,0 l/m 0 min 0 min 206 W/m 3,2 km/h (1 Bft) 97,87 %
27.07.2022 11:26 17,8 C 17,8 C 13,9 C 69 % 1021,0 hPa 0,0 l/m 0 min 0 min 205 W/m 9,7 km/h (2 Bft) 95,74 %
27.07.2022 11:28 17,8 C 17,8 C 14,4 C 70 % 1021,0 hPa 0,0 l/m 0 min 0 min 189 W/m 6,4 km/h (2 Bft) 97,87 %
27.07.2022 11:30 17,7 C 17,8 C 14,4 C 67 % 1021,0 hPa 0,0 l/m 0 min 0 min 211 W/m 6,4 km/h (2 Bft) 95,74 %
27.07.2022 11:32 17,7 C 17,8 C 14,4 C 67 % 1020,9 hPa 0,0 l/m 0 min 0 min 323 W/m 6,4 km/h (2 Bft) 95,74 %
27.07.2022 11:34 17,7 C 18,3 C 14,4 C 68 % 1020,9 hPa 0,0 l/m 2 min 0 min 378 W/m 16,1 km/h (3 Bft) 97,83 %
27.07.2022 11:36 17,7 C 18,3 C 14,4 C 68 % 1020,9 hPa 0,0 l/m 0 min 0 min 266 W/m 9,7 km/h (2 Bft) 98,11 %
27.07.2022 11:38 17,8 C 19,4 C 14,4 C 68 % 1020,9 hPa 0,0 l/m 2 min 0 min 645 W/m 12,9 km/h (3 Bft) 97,56 %
27.07.2022 11:40 17,9 C 20,0 C 15,0 C 67 % 1020,8 hPa 0,0 l/m 2 min 0 min 923 W/m 19,3 km/h (3 Bft) 97,87 %
27.07.2022 11:42 18,1 C 20,6 C 15,0 C 66 % 1020,8 hPa 0,0 l/m 2 min 0 min 903 W/m 16,1 km/h (3 Bft) 95,74 %
27.07.2022 11:44 18,2 C 21,1 C 15,6 C 65 % 1020,8 hPa 0,0 l/m 2 min 0 min 874 W/m 16,1 km/h (3 Bft) 97,83 %
27.07.2022 11:46 18,3 C 21,7 C 15,6 C 63 % 1020,8 hPa 0,0 l/m 2 min 0 min 872 W/m 6,4 km/h (2 Bft) 97,87 %
27.07.2022 11:48 18,5 C 22,8 C 16,1 C 65 % 1020,8 hPa 0,0 l/m 2 min 0 min 870 W/m 12,9 km/h (3 Bft) 97,87 %
27.07.2022 11:50 18,7 C 22,2 C 15,6 C 64 % 1020,8 hPa 0,0 l/m 2 min 0 min 787 W/m 19,3 km/h (3 Bft) 95,74 %
27.07.2022 11:52 18,8 C 22,2 C 15,6 C 65 % 1020,7 hPa 0,0 l/m 0 min 0 min 354 W/m 6,4 km/h (2 Bft) 95,74 %
27.07.2022 11:54 19,1 C 22,8 C 16,1 C 65 % 1020,8 hPa 0,0 l/m 2 min 0 min 914 W/m 16,1 km/h (3 Bft) 97,87 %
27.07.2022 11:56 19,3 C 22,8 C 16,1 C 65 % 1020,9 hPa 0,0 l/m 2 min 0 min 944 W/m 16,1 km/h (3 Bft) 95,74 %
27.07.2022 11:58 19,4 C 21,7 C 16,1 C 63 % 1020,8 hPa 0,0 l/m 2 min 0 min 737 W/m 16,1 km/h (3 Bft) 97,83 %
27.07.2022 12:00 19,3 C 21,7 C 16,1 C 64 % 1020,7 hPa 0,0 l/m 0 min 0 min 221 W/m 12,9 km/h (3 Bft) 97,87 %
27.07.2022 12:02 19,4 C 21,1 C 16,1 C 64 % 1020,8 hPa 0,0 l/m 0 min 0 min 187 W/m 16,1 km/h (3 Bft) 97,87 %
27.07.2022 12:04 19,4 C 20,6 C 15,6 C 64 % 1020,8 hPa 0,0 l/m 0 min 0 min 135 W/m 12,9 km/h (3 Bft) 97,87 %
27.07.2022 12:08 19,1 C 18,9 C 15,0 C 64 % 1020,8 hPa 0,0 l/m 0 min 0 min 113 W/m 16,1 km/h (3 Bft) 98,02 %
27.07.2022 12:10 18,8 C 18,3 C 15,0 C 64 % 1020,8 hPa 0,0 l/m 0 min 0 min 116 W/m 9,7 km/h (2 Bft) 100,00 %
27.07.2022 12:12 18,7 C 18,3 C 14,4 C 64 % 1020,9 hPa 0,0 l/m 0 min 0 min 123 W/m 6,4 km/h (2 Bft) 100,00 %
27.07.2022 12:14 18,6 C 18,9 C 15,0 C 65 % 1020,8 hPa 0,0 l/m 0 min 0 min 204 W/m 9,7 km/h (2 Bft) 100,00 %
27.07.2022 12:16 18,7 C 20,0 C 16,1 C 65 % 1020,8 hPa 0,0 l/m 2 min 0 min 680 W/m 12,9 km/h (3 Bft) 100,00 %
27.07.2022 12:18 18,8 C 21,1 C 17,8 C 63 % 1020,8 hPa 0,0 l/m 2 min 0 min 895 W/m 12,9 km/h (3 Bft) 100,00 %
27.07.2022 12:20 18,9 C 22,2 C 19,4 C 63 % 1020,8 hPa 0,0 l/m 2 min 0 min 896 W/m 12,9 km/h (3 Bft) 97,87 %
27.07.2022 12:22 19,2 C 22,8 C 20,0 C 63 % 1020,9 hPa 0,0 l/m 2 min 0 min 897 W/m 12,9 km/h (3 Bft) 97,87 %
27.07.2022 12:24 19,4 C 23,3 C 20,6 C 63 % 1020,8 hPa 0,0 l/m 2 min 0 min 898 W/m 9,7 km/h (2 Bft) 100,00 %
27.07.2022 12:26 19,6 C 23,9 C 21,1 C 62 % 1020,8 hPa 0,0 l/m 2 min 0 min 897 W/m 16,1 km/h (3 Bft) 100,00 %
27.07.2022 12:28 19,7 C 22,8 C 21,7 C 58 % 1020,9 hPa 0,0 l/m 2 min 0 min 909 W/m 19,3 km/h (3 Bft) 97,87 %
27.07.2022 12:30 19,8 C 22,8 C 22,2 C 59 % 1020,8 hPa 0,0 l/m 2 min 0 min 921 W/m 12,9 km/h (3 Bft) 97,87 %
27.07.2022 12:32 19,9 C 23,3 C 23,9 C 59 % 1020,8 hPa 0,0 l/m 2 min 0 min 923 W/m 3,2 km/h (1 Bft) 100,00 %
27.07.2022 12:34 20,1 C 23,3 C 23,3 C 58 % 1020,8 hPa 0,0 l/m 2 min 0 min 934 W/m 12,9 km/h (3 Bft) 100,00 %
27.07.2022 12:36 20,3 C 23,9 C 23,3 C 58 % 1020,9 hPa 0,0 l/m 2 min 0 min 958 W/m 16,1 km/h (3 Bft) 100,00 %
27.07.2022 12:38 20,4 C 23,9 C 23,3 C 57 % 1020,9 hPa 0,0 l/m 2 min 0 min 999 W/m 12,9 km/h (3 Bft) 100,00 %
27.07.2022 12:40 20,6 C 23,9 C 23,9 C 56 % 1020,8 hPa 0,0 l/m 2 min 0 min 1044 W/m 12,9 km/h (3 Bft) 97,87 %
27.07.2022 12:42 20,6 C 23,9 C 24,4 C 55 % 1020,8 hPa 0,0 l/m 2 min 0 min 1081 W/m 16,1 km/h (3 Bft) 100,00 %
27.07.2022 12:44 20,6 C 23,3 C 24,4 C 55 % 1020,8 hPa 0,0 l/m 2 min 0 min 1132 W/m 16,1 km/h (3 Bft) 100,00 %
27.07.2022 12:46 20,7 C 23,9 C 25,0 C 56 % 1020,8 hPa 0,0 l/m 2 min 0 min 826 W/m 12,9 km/h (3 Bft) 97,87 %
27.07.2022 12:48 20,8 C 23,3 C 22,8 C 58 % 1020,8 hPa 0,0 l/m 2 min 0 min 827 W/m 12,9 km/h (3 Bft) 98,00 %
27.07.2022 12:50 20,9 C 22,8 C 22,2 C 58 % 1020,8 hPa 0,0 l/m 2 min 0 min 994 W/m 6,4 km/h (2 Bft) 97,83 %
27.07.2022 12:52 20,9 C 22,2 C 20,6 C 57 % 1020,9 hPa 0,0 l/m 0 min 0 min 276 W/m 19,3 km/h (3 Bft) 97,87 %
27.07.2022 12:54 20,8 C 21,1 C 18,9 C 57 % 1020,8 hPa 0,0 l/m 0 min 0 min 214 W/m 22,5 km/h (4 Bft) 95,74 %
27.07.2022 12:56 20,7 C 20,6 C 18,3 C 57 % 1020,8 hPa 0,0 l/m 0 min 0 min 174 W/m 19,3 km/h (3 Bft) 97,87 %
27.07.2022 12:58 20,6 C 20,0 C 17,2 C 57 % 1020,8 hPa 0,0 l/m 0 min 0 min 152 W/m 22,5 km/h (4 Bft) 97,87 %
27.07.2022 13:00 20,4 C 19,4 C 16,7 C 57 % 1020,8 hPa 0,0 l/m 0 min 0 min 150 W/m 25,7 km/h (4 Bft) 97,83 %
27.07.2022 13:02 20,2 C 19,4 C 16,1 C 57 % 1020,9 hPa 0,0 l/m 0 min 0 min 156 W/m 25,7 km/h (4 Bft) 97,87 %
27.07.2022 13:04 20,1 C 18,9 C 16,1 C 57 % 1020,9 hPa 0,0 l/m 0 min 0 min 164 W/m 22,5 km/h (4 Bft) 95,74 %
27.07.2022 13:06 19,9 C 18,9 C 16,1 C 57 % 1020,9 hPa 0,0 l/m 0 min 0 min 178 W/m 6,4 km/h (2 Bft) 97,87 %
27.07.2022 13:08 19,8 C 19,4 C 16,1 C 58 % 1020,9 hPa 0,0 l/m 0 min 0 min 195 W/m 9,7 km/h (2 Bft) 97,87 %
27.07.2022 13:10 19,8 C 19,4 C 16,1 C 59 % 1020,8 hPa 0,0 l/m 0 min 0 min 219 W/m 16,1 km/h (3 Bft) 95,74 %
27.07.2022 13:12 19,7 C 19,4 C 16,1 C 60 % 1020,8 hPa 0,0 l/m 0 min 0 min 244 W/m 12,9 km/h (3 Bft) 97,87 %
27.07.2022 13:14 19,6 C 19,4 C 16,1 C 60 % 1020,7 hPa 0,0 l/m 0 min 0 min 262 W/m 12,9 km/h (3 Bft) 97,83 %
27.07.2022 13:16 19,6 C 19,4 C 16,1 C 61 % 1020,8 hPa 0,0 l/m 0 min 0 min 283 W/m 12,9 km/h (3 Bft) 95,74 %
27.07.2022 13:18 19,6 C 19,4 C 16,1 C 61 % 1020,8 hPa 0,0 l/m 0 min 0 min 300 W/m 12,9 km/h (3 Bft) 97,87 %
27.07.2022 13:20 19,6 C 20,0 C 16,1 C 60 % 1020,7 hPa 0,0 l/m 0 min 0 min 316 W/m 12,9 km/h (3 Bft) 97,87 %
27.07.2022 13:22 19,6 C 20,0 C 16,1 C 60 % 1020,7 hPa 0,0 l/m 0 min 0 min 340 W/m 16,1 km/h (3 Bft) 95,74 %
27.07.2022 13:24 19,6 C 20,0 C 16,7 C 61 % 1020,7 hPa 0,0 l/m 0 min 0 min 363 W/m 16,1 km/h (3 Bft) 91,49 %
27.07.2022 13:26 19,6 C 20,0 C 16,7 C 60 % 1020,7 hPa 0,0 l/m 0 min 0 min 398 W/m 16,1 km/h (3 Bft) 91,30 %
27.07.2022 13:28 19,7 C 20,0 C 16,7 C 60 % 1020,6 hPa 0,0 l/m 0 min 0 min 400 W/m 22,5 km/h (4 Bft) 93,62 %
27.07.2022 13:30 19,7 C 20,6 C 16,7 C 60 % 1020,6 hPa 0,0 l/m 2 min 0 min 445 W/m 16,1 km/h (3 Bft) 91,49 %
27.07.2022 13:32 19,8 C 21,1 C 16,7 C 61 % 1020,6 hPa 0,0 l/m 2 min 0 min 418 W/m 12,9 km/h (3 Bft) 95,74 %
27.07.2022 13:34 19,9 C 21,7 C 17,2 C 60 % 1020,6 hPa 0,0 l/m 2 min 0 min 420 W/m 12,9 km/h (3 Bft) 91,49 %
27.07.2022 13:36 20,1 C 21,7 C 17,2 C 59 % 1020,5 hPa 0,0 l/m 2 min 0 min 524 W/m 6,4 km/h (2 Bft) 93,62 %
27.07.2022 13:38 20,1 C 21,7 C 17,8 C 59 % 1020,5 hPa 0,0 l/m 2 min 0 min 541 W/m 9,7 km/h (2 Bft) 93,48 %
27.07.2022 13:40 20,2 C 21,7 C 17,2 C 59 % 1020,5 hPa 0,0 l/m 2 min 0 min 481 W/m 9,7 km/h (2 Bft) 91,49 %
27.07.2022 13:42 20,3 C 22,2 C 17,8 C 59 % 1020,5 hPa 0,0 l/m 2 min 0 min 410 W/m 12,9 km/h (3 Bft) 93,62 %
27.07.2022 13:44 20,3 C 21,7 C 17,8 C 58 % 1020,5 hPa 0,0 l/m 0 min 0 min 315 W/m 12,9 km/h (3 Bft) 93,62 %
27.07.2022 13:46 20,3 C 21,1 C 17,2 C 58 % 1020,5 hPa 0,0 l/m 0 min 0 min 279 W/m 9,7 km/h (2 Bft) 91,49 %
27.07.2022 13:48 20,3 C 20,6 C 17,2 C 58 % 1020,5 hPa 0,0 l/m 0 min 0 min 197 W/m 12,9 km/h (3 Bft) 95,65 %
27.07.2022 13:50 20,2 C 20,6 C 16,7 C 57 % 1020,4 hPa 0,0 l/m 0 min 0 min 186 W/m 12,9 km/h (3 Bft) 95,74 %
27.07.2022 13:52 20,2 C 20,0 C 16,7 C 57 % 1020,5 hPa 0,0 l/m 0 min 0 min 177 W/m 16,1 km/h (3 Bft) 95,74 %
27.07.2022 13:54 20,1 C 20,0 C 16,1 C 58 % 1020,5 hPa 0,0 l/m 0 min 0 min 208 W/m 9,7 km/h (2 Bft) 95,74 %
27.07.2022 13:56 20,1 C 21,1 C 17,2 C 58 % 1020,4 hPa 0,0 l/m 2 min 0 min 491 W/m 12,9 km/h (3 Bft) 95,74 %
27.07.2022 13:58 20,2 C 22,2 C 17,8 C 59 % 1020,4 hPa 0,0 l/m 2 min 0 min 1055 W/m 6,4 km/h (2 Bft) 95,74 %
27.07.2022 14:00 20,3 C 22,8 C 17,8 C 58 % 1020,4 hPa 0,0 l/m 2 min 0 min 911 W/m 16,1 km/h (3 Bft) 95,65 %
27.07.2022 14:02 20,5 C 23,9 C 17,8 C 58 % 1020,4 hPa 0,0 l/m 2 min 0 min 954 W/m 12,9 km/h (3 Bft) 95,74 %
27.07.2022 14:04 20,7 C 23,9 C 17,8 C 56 % 1020,4 hPa 0,0 l/m 2 min 0 min 1000 W/m 19,3 km/h (3 Bft) 93,62 %
27.07.2022 14:06 20,8 C 23,9 C 17,8 C 57 % 1020,4 hPa 0,0 l/m 2 min 0 min 1015 W/m 12,9 km/h (3 Bft) 95,74 %
27.07.2022 14:08 20,9 C 24,4 C 17,2 C 57 % 1020,4 hPa 0,0 l/m 2 min 0 min 1018 W/m 16,1 km/h (3 Bft) 95,74 %
27.07.2022 14:10 21,0 C 25,0 C 17,8 C 56 % 1020,4 hPa 0,0 l/m 2 min 0 min 1024 W/m 12,9 km/h (3 Bft) 100,00 %
27.07.2022 14:12 21,1 C 25,0 C 17,8 C 57 % 1020,4 hPa 0,0 l/m 2 min 0 min 1037 W/m 16,1 km/h (3 Bft) 100,00 %
27.07.2022 14:14 21,3 C 25,0 C 17,8 C 57 % 1020,3 hPa 0,0 l/m 2 min 0 min 1044 W/m 6,4 km/h (2 Bft) 97,87 %
27.07.2022 14:16 21,3 C 25,0 C 17,8 C 55 % 1020,3 hPa 0,0 l/m 2 min 0 min 1049 W/m 12,9 km/h (3 Bft) 100,00 %
27.07.2022 14:18 21,4 C 25,0 C 17,8 C 54 % 1020,3 hPa 0,0 l/m 2 min 0 min 1042 W/m 12,9 km/h (3 Bft) 100,00 %
27.07.2022 14:20 21,7 C 26,1 C 17,8 C 55 % 1020,3 hPa 0,0 l/m 2 min 0 min 1022 W/m 12,9 km/h (3 Bft) 100,00 %
27.07.2022 14:22 21,8 C 26,1 C 18,3 C 54 % 1020,3 hPa 0,0 l/m 2 min 0 min 1025 W/m 12,9 km/h (3 Bft) 100,00 %
27.07.2022 14:24 21,9 C 25,6 C 17,8 C 54 % 1020,3 hPa 0,0 l/m 2 min 0 min 485 W/m 9,7 km/h (2 Bft) 100,00 %
27.07.2022 14:26 21,9 C 25,0 C 17,8 C 53 % 1020,3 hPa 0,0 l/m 0 min 0 min 223 W/m 12,9 km/h (3 Bft) 100,00 %
27.07.2022 14:28 22,0 C 24,4 C 17,8 C 52 % 1020,3 hPa 0,0 l/m 0 min 0 min 223 W/m 16,1 km/h (3 Bft) 100,00 %
27.07.2022 14:30 21,9 C 25,0 C 17,8 C 52 % 1020,2 hPa 0,0 l/m 2 min 0 min 784 W/m 12,9 km/h (3 Bft) 100,00 %
27.07.2022 14:32 22,1 C 25,6 C 17,8 C 53 % 1020,2 hPa 0,0 l/m 2 min 0 min 1025 W/m 6,4 km/h (2 Bft) 100,00 %
27.07.2022 14:34 22,2 C 26,1 C 17,8 C 53 % 1020,1 hPa 0,0 l/m 2 min 0 min 1002 W/m 16,1 km/h (3 Bft) 100,00 %
27.07.2022 14:36 22,3 C 25,6 C 17,8 C 50 % 1020,1 hPa 0,0 l/m 2 min 0 min 983 W/m 12,9 km/h (3 Bft) 100,00 %
27.07.2022 14:38 22,3 C 26,1 C 17,8 C 51 % 1020,0 hPa 0,0 l/m 2 min 0 min 991 W/m 9,7 km/h (2 Bft) 100,00 %
27.07.2022 14:40 22,5 C 26,1 C 18,3 C 51 % 1020,0 hPa 0,0 l/m 2 min 0 min 1024 W/m 12,9 km/h (3 Bft) 100,00 %
27.07.2022 14:42 22,4 C 23,9 C 17,8 C 49 % 1020,1 hPa 0,0 l/m 2 min 0 min 432 W/m 16,1 km/h (3 Bft) 100,00 %
27.07.2022 14:44 22,2 C 24,4 C 17,8 C 50 % 1020,0 hPa 0,0 l/m 0 min 0 min 197 W/m 9,7 km/h (2 Bft) 100,00 %
27.07.2022 14:46 22,1 C 23,9 C 17,2 C 50 % 1020,0 hPa 0,0 l/m 2 min 0 min 860 W/m 19,3 km/h (3 Bft) 100,00 %
27.07.2022 14:48 21,9 C 22,8 C 17,2 C 50 % 1020,1 hPa 0,0 l/m 0 min 0 min 220 W/m 16,1 km/h (3 Bft) 100,00 %
27.07.2022 14:50 21,8 C 22,2 C 17,2 C 50 % 1020,1 hPa 0,0 l/m 0 min 0 min 239 W/m 6,4 km/h (2 Bft) 100,00 %
27.07.2022 14:52 21,6 C 21,7 C 17,2 C 51 % 1020,0 hPa 0,0 l/m 0 min 0 min 257 W/m 12,9 km/h (3 Bft) 100,00 %
27.07.2022 14:54 21,4 C 21,1 C 17,2 C 52 % 1020,0 hPa 0,0 l/m 0 min 0 min 276 W/m 19,3 km/h (3 Bft) 100,00 %
27.07.2022 14:56 21,3 C 21,1 C 17,2 C 52 % 1020,0 hPa 0,0 l/m 0 min 0 min 309 W/m 22,5 km/h (4 Bft) 97,87 %
27.07.2022 14:58 21,3 C 22,2 C 17,2 C 53 % 1020,1 hPa 0,0 l/m 0 min 0 min 345 W/m 12,9 km/h (3 Bft) 100,00 %
27.07.2022 15:00 21,3 C 23,3 C 17,8 C 53 % 1020,0 hPa 0,0 l/m 2 min 0 min 982 W/m 16,1 km/h (3 Bft) 100,00 %
27.07.2022 15:02 21,4 C 22,8 C 17,8 C 51 % 1020,1 hPa 0,0 l/m 2 min 0 min 844 W/m 32,2 km/h (5 Bft) 91,49 %
27.07.2022 15:04 21,4 C 22,8 C 17,8 C 51 % 1020,1 hPa 0,0 l/m 0 min 0 min 358 W/m 16,1 km/h (3 Bft) 100,00 %
27.07.2022 15:06 21,3 C 22,2 C 17,2 C 50 % 1020,0 hPa 0,0 l/m 0 min 0 min 356 W/m 12,9 km/h (3 Bft) 95,74 %
27.07.2022 15:08 21,3 C 22,8 C 17,2 C 50 % 1020,0 hPa 0,0 l/m 2 min 0 min 394 W/m 6,4 km/h (2 Bft) 100,00 %
27.07.2022 15:10 21,3 C 22,2 C 17,2 C 50 % 1020,1 hPa 0,0 l/m 0 min 0 min 358 W/m 22,5 km/h (4 Bft) 100,00 %
27.07.2022 15:12 21,2 C 22,2 C 17,8 C 51 % 1020,1 hPa 0,0 l/m 0 min 0 min 364 W/m 19,3 km/h (3 Bft) 100,00 %
27.07.2022 15:14 21,2 C 22,2 C 17,8 C 51 % 1020,1 hPa 0,0 l/m 0 min 0 min 364 W/m 6,4 km/h (2 Bft) 97,87 %
27.07.2022 15:16 21,2 C 22,2 C 17,8 C 51 % 1020,1 hPa 0,0 l/m 0 min 0 min 357 W/m 12,9 km/h (3 Bft) 100,00 %
27.07.2022 15:18 21,2 C 21,7 C 17,8 C 50 % 1020,0 hPa 0,0 l/m 0 min 0 min 349 W/m 6,4 km/h (2 Bft) 100,00 %
27.07.2022 15:20 21,2 C 21,7 C 17,8 C 50 % 1020,0 hPa 0,0 l/m 0 min 0 min 364 W/m 9,7 km/h (2 Bft) 100,00 %
27.07.2022 15:22 21,2 C 22,2 C 17,8 C 50 % 1020,0 hPa 0,0 l/m 0 min 0 min 365 W/m 9,7 km/h (2 Bft) 100,00 %
27.07.2022 15:24 21,2 C 21,7 C 17,8 C 49 % 1020,1 hPa 0,0 l/m 0 min 0 min 352 W/m 6,4 km/h (2 Bft) 100,00 %
27.07.2022 15:26 21,2 C 22,2 C 17,8 C 50 % 1020,1 hPa 0,0 l/m 0 min 0 min 365 W/m 9,7 km/h (2 Bft) 100,00 %
27.07.2022 15:28 21,2 C 22,2 C 17,8 C 52 % 1020,1 hPa 0,0 l/m 0 min 0 min 328 W/m 16,1 km/h (3 Bft) 100,00 %
27.07.2022 15:30 21,1 C 22,2 C 17,2 C 52 % 1020,1 hPa 0,0 l/m 0 min 0 min 265 W/m 12,9 km/h (3 Bft) 100,00 %
27.07.2022 15:32 21,1 C 21,7 C 17,2 C 52 % 1020,1 hPa 0,0 l/m 0 min 0 min 243 W/m 9,7 km/h (2 Bft) 100,00 %
27.07.2022 15:34 21,1 C 21,7 C 17,2 C 52 % 1020,2 hPa 0,0 l/m 0 min 0 min 229 W/m 12,9 km/h (3 Bft) 100,00 %
27.07.2022 15:36 21,0 C 21,7 C 17,2 C 52 % 1020,1 hPa 0,0 l/m 0 min 0 min 221 W/m 9,7 km/h (2 Bft) 97,83 %
27.07.2022 15:38 20,9 C 21,7 C 17,2 C 53 % 1020,1 hPa 0,0 l/m 0 min 0 min 221 W/m 12,9 km/h (3 Bft) 97,87 %
27.07.2022 15:40 20,9 C 21,1 C 17,2 C 53 % 1020,2 hPa 0,0 l/m 0 min 0 min 229 W/m 16,1 km/h (3 Bft) 97,87 %
27.07.2022 15:42 20,8 C 21,1 C 16,7 C 52 % 1020,2 hPa 0,0 l/m 0 min 0 min 245 W/m 12,9 km/h (3 Bft) 97,87 %
27.07.2022 15:44 20,8 C 21,1 C 17,2 C 52 % 1020,1 hPa 0,0 l/m 0 min 0 min 262 W/m 12,9 km/h (3 Bft) 97,87 %
27.07.2022 15:46 20,8 C 21,1 C 17,2 C 53 % 1020,1 hPa 0,0 l/m 0 min 0 min 284 W/m 9,7 km/h (2 Bft) 95,74 %
27.07.2022 15:48 20,8 C 21,1 C 17,2 C 52 % 1020,1 hPa 0,0 l/m 0 min 0 min 301 W/m 12,9 km/h (3 Bft) 97,83 %
27.07.2022 15:50 20,9 C 21,7 C 17,2 C 52 % 1020,1 hPa 0,0 l/m 0 min 0 min 324 W/m 12,9 km/h (3 Bft) 97,87 %
27.07.2022 15:52 20,9 C 21,7 C 17,2 C 51 % 1020,1 hPa 0,0 l/m 2 min 0 min 432 W/m 12,9 km/h (3 Bft) 93,62 %
27.07.2022 15:54 20,9 C 21,7 C 17,2 C 50 % 1020,1 hPa 0,0 l/m 2 min 0 min 374 W/m 12,9 km/h (3 Bft) 95,74 %
27.07.2022 15:56 20,9 C 22,2 C 17,2 C 51 % 1020,1 hPa 0,0 l/m 0 min 0 min 346 W/m 9,7 km/h (2 Bft) 97,87 %
27.07.2022 15:58 21,0 C 22,8 C 17,8 C 51 % 1020,1 hPa 0,0 l/m 2 min 0 min 360 W/m 9,7 km/h (2 Bft) 95,74 %
27.07.2022 16:00 21,1 C 23,9 C 17,8 C 52 % 1020,0 hPa 0,0 l/m 2 min 0 min 562 W/m 6,4 km/h (2 Bft) 95,65 %
27.07.2022 16:02 21,2 C 25,0 C 17,8 C 51 % 1020,0 hPa 0,0 l/m 2 min 0 min 778 W/m 12,9 km/h (3 Bft) 91,49 %
27.07.2022 16:04 21,3 C 26,1 C 17,8 C 51 % 1020,0 hPa 0,0 l/m 2 min 0 min 910 W/m 12,9 km/h (3 Bft) 93,62 %
27.07.2022 16:06 21,6 C 26,7 C 18,3 C 51 % 1020,0 hPa 0,0 l/m 2 min 0 min 883 W/m 9,7 km/h (2 Bft) 93,62 %
27.07.2022 16:08 21,7 C 26,7 C 17,8 C 50 % 1020,0 hPa 0,0 l/m 2 min 0 min 872 W/m 6,4 km/h (2 Bft) 95,74 %
27.07.2022 16:10 21,8 C 27,2 C 17,8 C 51 % 1020,0 hPa 0,0 l/m 2 min 0 min 877 W/m 6,4 km/h (2 Bft) 95,74 %
27.07.2022 16:12 22,0 C 27,8 C 18,3 C 51 % 1019,9 hPa 0,0 l/m 2 min 0 min 890 W/m 16,1 km/h (3 Bft) 95,65 %
27.07.2022 16:14 22,2 C 27,8 C 18,3 C 51 % 1019,9 hPa 0,0 l/m 2 min 0 min 924 W/m 6,4 km/h (2 Bft) 95,74 %
27.07.2022 16:16 22,4 C 27,8 C 18,3 C 49 % 1019,8 hPa 0,0 l/m 2 min 0 min 942 W/m 9,7 km/h (2 Bft) 93,62 %
27.07.2022 16:18 22,5 C 27,8 C 18,3 C 49 % 1019,9 hPa 0,0 l/m 2 min 0 min 959 W/m 9,7 km/h (2 Bft) 95,74 %
27.07.2022 16:20 22,6 C 26,1 C 18,3 C 49 % 1019,9 hPa 0,0 l/m 2 min 0 min 548 W/m 16,1 km/h (3 Bft) 95,74 %
27.07.2022 16:22 22,6 C 24,4 C 18,3 C 49 % 1019,8 hPa 0,0 l/m 0 min 0 min 227 W/m 12,9 km/h (3 Bft) 93,62 %
27.07.2022 16:24 22,5 C 23,3 C 18,3 C 49 % 1019,7 hPa 0,0 l/m 0 min 0 min 224 W/m 16,1 km/h (3 Bft) 95,65 %
27.07.2022 16:26 22,3 C 22,8 C 17,8 C 49 % 1019,7 hPa 0,0 l/m 0 min 0 min 231 W/m 12,9 km/h (3 Bft) 95,74 %
27.07.2022 16:28 22,2 C 22,2 C 17,8 C 49 % 1019,8 hPa 0,0 l/m 0 min 0 min 233 W/m 9,7 km/h (2 Bft) 95,74 %
27.07.2022 16:30 22,1 C 22,2 C 17,8 C 50 % 1019,7 hPa 0,0 l/m 0 min 0 min 230 W/m 12,9 km/h (3 Bft) 95,74 %
27.07.2022 16:32 22,0 C 21,7 C 17,8 C 50 % 1019,7 hPa 0,0 l/m 0 min 0 min 229 W/m 12,9 km/h (3 Bft) 95,74 %
27.07.2022 16:34 21,9 C 22,2 C 17,2 C 50 % 1019,7 hPa 0,0 l/m 0 min 0 min 228 W/m 6,4 km/h (2 Bft) 95,74 %
27.07.2022 16:36 21,8 C 22,2 C 17,2 C 50 % 1019,7 hPa 0,0 l/m 0 min 0 min 216 W/m 3,2 km/h (1 Bft) 95,83 %
27.07.2022 16:38 21,8 C 23,3 C 17,2 C 50 % 1019,7 hPa 0,0 l/m 0 min 0 min 239 W/m 12,9 km/h (3 Bft) 94,29 %
27.07.2022 16:40 21,7 C 25,0 C 17,2 C 49 % 1019,7 hPa 0,0 l/m 2 min 0 min 664 W/m 16,1 km/h (3 Bft) 95,74 %
27.07.2022 16:42 21,6 C 26,1 C 17,2 C 49 % 1019,6 hPa 0,0 l/m 2 min 0 min 736 W/m 3,2 km/h (1 Bft) 97,87 %
27.07.2022 16:44 21,7 C 27,2 C 17,8 C 50 % 1019,6 hPa 0,0 l/m 2 min 0 min 756 W/m 19,3 km/h (3 Bft) 95,65 %
27.07.2022 16:46 21,8 C 27,8 C 17,8 C 50 % 1019,5 hPa 0,0 l/m 2 min 0 min 773 W/m 16,1 km/h (3 Bft) 95,74 %
27.07.2022 16:48 22,1 C 28,3 C 18,3 C 49 % 1019,5 hPa 0,0 l/m 2 min 0 min 809 W/m 12,9 km/h (3 Bft) 95,74 %
27.07.2022 16:50 22,1 C 27,8 C 18,3 C 49 % 1019,5 hPa 0,0 l/m 2 min 0 min 810 W/m 6,4 km/h (2 Bft) 97,87 %
27.07.2022 16:52 22,1 C 27,8 C 17,8 C 48 % 1019,5 hPa 0,0 l/m 2 min 0 min 805 W/m 12,9 km/h (3 Bft) 97,87 %
27.07.2022 16:54 22,2 C 28,3 C 18,3 C 49 % 1019,5 hPa 0,0 l/m 2 min 0 min 807 W/m 19,3 km/h (3 Bft) 97,87 %
27.07.2022 16:56 22,3 C 28,3 C 18,3 C 49 % 1019,5 hPa 0,0 l/m 2 min 0 min 772 W/m 9,7 km/h (2 Bft) 95,65 %
27.07.2022 16:58 22,6 C 28,9 C 18,9 C 50 % 1019,5 hPa 0,0 l/m 2 min 0 min 726 W/m 9,7 km/h (2 Bft) 97,87 %
27.07.2022 17:00 22,7 C 28,9 C 18,9 C 49 % 1019,6 hPa 0,0 l/m 2 min 0 min 666 W/m 6,4 km/h (2 Bft) 97,87 %
27.07.2022 17:02 22,8 C 28,9 C 18,9 C 48 % 1019,5 hPa 0,0 l/m 2 min 0 min 758 W/m 6,4 km/h (2 Bft) 97,87 %
27.07.2022 17:04 22,8 C 29,4 C 18,9 C 49 % 1019,5 hPa 0,0 l/m 2 min 0 min 817 W/m 16,1 km/h (3 Bft) 97,87 %
27.07.2022 17:06 22,9 C 29,4 C 19,4 C 50 % 1019,5 hPa 0,0 l/m 2 min 0 min 839 W/m 22,5 km/h (4 Bft) 98,28 %
27.07.2022 17:08 23,0 C 28,9 C 19,4 C 48 % 1019,4 hPa 0,0 l/m 2 min 0 min 843 W/m 12,9 km/h (3 Bft) 97,14 %
27.07.2022 17:10 22,8 C 27,8 C 18,9 C 48 % 1019,5 hPa 0,0 l/m 2 min 0 min 828 W/m 12,9 km/h (3 Bft) 97,87 %
27.07.2022 17:12 23,0 C 28,9 C 19,4 C 48 % 1019,4 hPa 0,0 l/m 2 min 0 min 805 W/m 16,1 km/h (3 Bft) 100,00 %
27.07.2022 17:14 23,0 C 28,9 C 19,4 C 48 % 1019,4 hPa 0,0 l/m 2 min 0 min 788 W/m 19,3 km/h (3 Bft) 100,00 %
27.07.2022 17:16 23,1 C 29,4 C 20,0 C 48 % 1019,4 hPa 0,0 l/m 2 min 0 min 779 W/m 19,3 km/h (3 Bft) 100,00 %
27.07.2022 17:18 23,2 C 29,4 C 20,0 C 48 % 1019,4 hPa 0,0 l/m 2 min 0 min 765 W/m 19,3 km/h (3 Bft) 97,87 %
27.07.2022 17:20 23,2 C 29,4 C 19,4 C 46 % 1019,4 hPa 0,0 l/m 2 min 0 min 735 W/m 9,7 km/h (2 Bft) 100,00 %
27.07.2022 17:22 23,2 C 28,9 C 19,4 C 46 % 1019,3 hPa 0,0 l/m 2 min 0 min 705 W/m 9,7 km/h (2 Bft) 97,87 %
27.07.2022 17:24 23,3 C 29,4 C 19,4 C 47 % 1019,3 hPa 0,0 l/m 2 min 0 min 693 W/m 6,4 km/h (2 Bft) 97,87 %
27.07.2022 17:26 23,3 C 30,0 C 20,0 C 47 % 1019,3 hPa 0,0 l/m 2 min 0 min 679 W/m 6,4 km/h (2 Bft) 97,87 %
27.07.2022 17:28 23,4 C 30,0 C 20,0 C 47 % 1019,3 hPa 0,0 l/m 2 min 0 min 681 W/m 12,9 km/h (3 Bft) 97,87 %
27.07.2022 17:30 23,4 C 30,6 C 20,0 C 46 % 1019,3 hPa 0,0 l/m 2 min 0 min 684 W/m 9,7 km/h (2 Bft) 100,00 %
27.07.2022 17:32 23,6 C 30,6 C 20,0 C 47 % 1019,2 hPa 0,0 l/m 2 min 0 min 688 W/m 3,2 km/h (1 Bft) 95,65 %
27.07.2022 17:34 23,7 C 31,1 C 20,6 C 48 % 1019,2 hPa 0,0 l/m 2 min 0 min 714 W/m 12,9 km/h (3 Bft) 100,00 %
27.07.2022 17:36 23,9 C 30,6 C 20,6 C 48 % 1019,1 hPa 0,0 l/m 2 min 0 min 730 W/m 19,3 km/h (3 Bft) 100,00 %
27.07.2022 17:38 23,8 C 29,4 C 20,6 C 47 % 1019,2 hPa 0,0 l/m 2 min 0 min 704 W/m 25,7 km/h (4 Bft) 97,14 %
27.07.2022 17:40 23,8 C 29,4 C 20,6 C 48 % 1019,2 hPa 0,0 l/m 2 min 0 min 645 W/m 12,9 km/h (3 Bft) 100,00 %
27.07.2022 17:42 24,0 C 30,0 C 21,1 C 47 % 1019,3 hPa 0,0 l/m 2 min 0 min 671 W/m 16,1 km/h (3 Bft) 100,00 %
27.07.2022 17:44 24,1 C 29,4 C 21,1 C 46 % 1019,2 hPa 0,0 l/m 2 min 0 min 709 W/m 12,9 km/h (3 Bft) 97,83 %
27.07.2022 17:46 24,1 C 30,0 C 21,1 C 47 % 1019,1 hPa 0,0 l/m 2 min 0 min 675 W/m 9,7 km/h (2 Bft) 97,87 %
27.07.2022 17:48 24,1 C 30,6 C 21,1 C 47 % 1019,1 hPa 0,0 l/m 2 min 0 min 673 W/m 16,1 km/h (3 Bft) 95,74 %
27.07.2022 17:50 24,2 C 31,1 C 21,1 C 47 % 1019,1 hPa 0,0 l/m 2 min 0 min 644 W/m 12,9 km/h (3 Bft) 97,87 %
27.07.2022 17:52 24,2 C 29,4 C 21,1 C 47 % 1019,1 hPa 0,0 l/m 2 min 0 min 622 W/m 16,1 km/h (3 Bft) 97,87 %
27.07.2022 17:54 24,2 C 27,2 C 20,6 C 46 % 1019,1 hPa 0,0 l/m 0 min 0 min 177 W/m 12,9 km/h (3 Bft) 97,87 %
27.07.2022 17:56 23,9 C 25,0 C 19,4 C 45 % 1019,1 hPa 0,0 l/m 0 min 0 min 156 W/m 16,1 km/h (3 Bft) 97,83 %
27.07.2022 17:58 23,6 C 23,9 C 18,9 C 46 % 1019,1 hPa 0,0 l/m 0 min 0 min 140 W/m 9,7 km/h (2 Bft) 97,87 %
27.07.2022 18:00 23,3 C 22,8 C 18,9 C 46 % 1019,1 hPa 0,0 l/m 0 min 0 min 124 W/m 9,7 km/h (2 Bft) 97,87 %
27.07.2022 18:02 23,2 C 22,2 C 18,3 C 46 % 1019,1 hPa 0,0 l/m 0 min 0 min 114 W/m 12,9 km/h (3 Bft) 97,87 %
27.07.2022 18:04 23,0 C 22,2 C 18,3 C 47 % 1019,1 hPa 0,0 l/m 0 min 0 min 111 W/m 6,4 km/h (2 Bft) 97,87 %
27.07.2022 18:08 22,6 C 21,7 C 17,8 C 47 % 1019,0 hPa 0,0 l/m 0 min 0 min 109 W/m 9,7 km/h (2 Bft) 97,85 %
27.07.2022 18:10 22,4 C 21,7 C 17,8 C 48 % 1019,0 hPa 0,0 l/m 0 min 0 min 114 W/m 6,4 km/h (2 Bft) 100,00 %
27.07.2022 18:12 22,2 C 21,7 C 17,8 C 49 % 1019,0 hPa 0,0 l/m 0 min 0 min 130 W/m 9,7 km/h (2 Bft) 97,87 %
27.07.2022 18:14 22,1 C 21,7 C 17,8 C 49 % 1019,0 hPa 0,0 l/m 0 min 0 min 124 W/m 12,9 km/h (3 Bft) 95,74 %
27.07.2022 18:16 21,8 C 21,1 C 17,2 C 49 % 1019,0 hPa 0,0 l/m 0 min 0 min 103 W/m 12,9 km/h (3 Bft) 97,87 %
27.07.2022 18:18 21,7 C 21,1 C 17,2 C 50 % 1019,0 hPa 0,0 l/m 0 min 0 min 105 W/m 6,4 km/h (2 Bft) 100,00 %
27.07.2022 18:20 21,6 C 21,1 C 17,2 C 50 % 1019,0 hPa 0,0 l/m 0 min 0 min 104 W/m 12,9 km/h (3 Bft) 100,00 %
27.07.2022 18:24 21,4 C 21,1 C 17,2 C 51 % 1019,0 hPa 0,0 l/m 0 min 0 min 97 W/m 3,2 km/h (1 Bft) 100,00 %
27.07.2022 18:26 21,3 C 21,1 C 17,2 C 51 % 1018,9 hPa 0,0 l/m 0 min 0 min 107 W/m 9,7 km/h (2 Bft) 95,74 %
27.07.2022 18:28 21,3 C 21,1 C 17,2 C 51 % 1018,9 hPa 0,0 l/m 0 min 0 min 124 W/m 3,2 km/h (1 Bft) 100,00 %
27.07.2022 18:30 21,3 C 23,3 C 17,8 C 51 % 1018,9 hPa 0,0 l/m 2 min 0 min 350 W/m 16,1 km/h (3 Bft) 93,62 %
27.07.2022 18:32 21,4 C 25,6 C 18,3 C 50 % 1019,0 hPa 0,0 l/m 2 min 0 min 481 W/m 12,9 km/h (3 Bft) 95,74 %
27.07.2022 18:34 21,6 C 26,7 C 18,3 C 51 % 1019,0 hPa 0,0 l/m 2 min 0 min 492 W/m 16,1 km/h (3 Bft) 97,87 %
27.07.2022 18:36 21,8 C 27,8 C 18,9 C 50 % 1019,0 hPa 0,0 l/m 2 min 0 min 497 W/m 9,7 km/h (2 Bft) 97,87 %
27.07.2022 18:38 22,1 C 28,3 C 19,4 C 50 % 1018,9 hPa 0,0 l/m 2 min 0 min 491 W/m 9,7 km/h (2 Bft) 97,87 %
27.07.2022 18:40 22,3 C 27,8 C 19,4 C 49 % 1018,9 hPa 0,0 l/m 2 min 0 min 482 W/m 9,7 km/h (2 Bft) 97,87 %
27.07.2022 18:42 22,4 C 28,3 C 19,4 C 49 % 1019,0 hPa 0,0 l/m 2 min 0 min 464 W/m 16,1 km/h (3 Bft) 95,65 %
27.07.2022 18:44 22,6 C 28,3 C 19,4 C 49 % 1018,9 hPa 0,0 l/m 2 min 0 min 444 W/m 9,7 km/h (2 Bft) 95,74 %
27.07.2022 18:46 22,7 C 28,3 C 19,4 C 48 % 1018,9 hPa 0,0 l/m 2 min 0 min 450 W/m 16,1 km/h (3 Bft) 95,74 %
27.07.2022 18:48 22,6 C 27,2 C 18,9 C 48 % 1018,9 hPa 0,0 l/m 2 min 0 min 425 W/m 16,1 km/h (3 Bft) 97,87 %
27.07.2022 18:50 22,6 C 27,2 C 18,9 C 48 % 1018,9 hPa 0,0 l/m 2 min 0 min 407 W/m 12,9 km/h (3 Bft) 97,87 %
27.07.2022 18:52 22,6 C 27,2 C 18,9 C 48 % 1018,9 hPa 0,0 l/m 2 min 0 min 395 W/m 9,7 km/h (2 Bft) 97,83 %
27.07.2022 18:54 22,7 C 27,8 C 18,9 C 49 % 1018,9 hPa 0,0 l/m 2 min 0 min 392 W/m 9,7 km/h (2 Bft) 97,87 %
27.07.2022 18:56 22,8 C 28,3 C 18,9 C 48 % 1018,9 hPa 0,0 l/m 2 min 0 min 380 W/m 9,7 km/h (2 Bft) 97,87 %
27.07.2022 18:58 22,9 C 28,9 C 18,9 C 47 % 1018,9 hPa 0,0 l/m 2 min 0 min 385 W/m 12,9 km/h (3 Bft) 97,87 %
27.07.2022 19:00 23,0 C 28,9 C 18,9 C 47 % 1018,9 hPa 0,0 l/m 2 min 0 min 382 W/m 12,9 km/h (3 Bft) 95,74 %
27.07.2022 19:02 23,1 C 28,3 C 18,9 C 47 % 1018,8 hPa 0,0 l/m 2 min 0 min 366 W/m 16,1 km/h (3 Bft) 95,65 %
27.07.2022 19:04 23,1 C 28,3 C 18,3 C 46 % 1018,9 hPa 0,0 l/m 2 min 0 min 355 W/m 12,9 km/h (3 Bft) 97,87 %
27.07.2022 19:06 23,1 C 27,2 C 18,3 C 46 % 1018,9 hPa 0,0 l/m 2 min 0 min 348 W/m 6,4 km/h (2 Bft) 97,87 %
27.07.2022 19:08 23,1 C 26,7 C 18,3 C 45 % 1018,9 hPa 0,0 l/m 2 min 0 min 341 W/m 12,9 km/h (3 Bft) 95,74 %
27.07.2022 19:10 23,1 C 26,7 C 18,3 C 45 % 1018,9 hPa 0,0 l/m 2 min 0 min 333 W/m 9,7 km/h (2 Bft) 97,87 %
27.07.2022 19:12 23,1 C 26,1 C 18,3 C 45 % 1018,8 hPa 0,0 l/m 2 min 0 min 311 W/m 12,9 km/h (3 Bft) 95,74 %
27.07.2022 19:14 23,1 C 25,6 C 18,3 C 45 % 1018,9 hPa 0,0 l/m 2 min 0 min 300 W/m 9,7 km/h (2 Bft) 100,00 %
27.07.2022 19:16 23,1 C 25,6 C 18,3 C 46 % 1018,8 hPa 0,0 l/m 2 min 0 min 296 W/m 12,9 km/h (3 Bft) 100,00 %
27.07.2022 19:18 23,0 C 25,6 C 18,3 C 46 % 1018,9 hPa 0,0 l/m 2 min 0 min 297 W/m 6,4 km/h (2 Bft) 97,87 %
27.07.2022 19:20 22,9 C 25,0 C 18,3 C 47 % 1018,9 hPa 0,0 l/m 2 min 0 min 290 W/m 9,7 km/h (2 Bft) 100,00 %
27.07.2022 19:22 22,8 C 23,9 C 18,3 C 47 % 1018,9 hPa 0,0 l/m 2 min 0 min 272 W/m 6,4 km/h (2 Bft) 100,00 %
27.07.2022 19:24 22,8 C 23,9 C 18,3 C 49 % 1018,9 hPa 0,0 l/m 2 min 0 min 257 W/m 9,7 km/h (2 Bft) 97,87 %
27.07.2022 19:26 22,7 C 23,3 C 17,8 C 49 % 1018,9 hPa 0,0 l/m 2 min 0 min 256 W/m 9,7 km/h (2 Bft) 100,00 %
27.07.2022 19:28 22,7 C 22,8 C 17,8 C 48 % 1018,9 hPa 0,0 l/m 2 min 0 min 257 W/m 9,7 km/h (2 Bft) 95,74 %
27.07.2022 19:30 22,6 C 22,8 C 17,8 C 49 % 1018,9 hPa 0,0 l/m 2 min 0 min 259 W/m 6,4 km/h (2 Bft) 97,87 %
27.07.2022 19:32 22,4 C 22,8 C 17,8 C 49 % 1018,9 hPa 0,0 l/m 2 min 0 min 235 W/m 6,4 km/h (2 Bft) 93,62 %
27.07.2022 19:34 22,3 C 22,2 C 17,8 C 49 % 1018,9 hPa 0,0 l/m 2 min 0 min 243 W/m 9,7 km/h (2 Bft) 97,87 %
27.07.2022 19:36 22,3 C 22,2 C 17,8 C 48 % 1018,9 hPa 0,0 l/m 2 min 0 min 221 W/m 12,9 km/h (3 Bft) 95,74 %
27.07.2022 19:38 22,2 C 22,2 C 17,8 C 48 % 1018,9 hPa 0,0 l/m 2 min 0 min 185 W/m 16,1 km/h (3 Bft) 97,83 %
27.07.2022 19:40 22,2 C 21,7 C 17,8 C 48 % 1018,9 hPa 0,0 l/m 0 min 0 min 120 W/m 12,9 km/h (3 Bft) 97,87 %
27.07.2022 19:42 22,1 C 21,7 C 17,8 C 48 % 1018,8 hPa 0,0 l/m 0 min 0 min 89 W/m 16,1 km/h (3 Bft) 95,74 %
27.07.2022 19:44 22,1 C 21,7 C 17,8 C 49 % 1018,8 hPa 0,0 l/m 0 min 0 min 76 W/m 9,7 km/h (2 Bft) 97,87 %
27.07.2022 19:46 22,1 C 21,1 C 17,2 C 49 % 1018,8 hPa 0,0 l/m 0 min 0 min 67 W/m 12,9 km/h (3 Bft) 95,74 %
27.07.2022 19:48 22,0 C 21,1 C 17,2 C 50 % 1018,8 hPa 0,0 l/m 0 min 0 min 65 W/m 6,4 km/h (2 Bft) 95,74 %
27.07.2022 19:50 21,9 C 21,1 C 17,2 C 50 % 1018,9 hPa 0,0 l/m 0 min 0 min 56 W/m 9,7 km/h (2 Bft) 93,48 %
27.07.2022 19:52 21,8 C 21,1 C 17,2 C 50 % 1018,8 hPa 0,0 l/m 0 min 0 min 53 W/m 6,4 km/h (2 Bft) 93,62 %
27.07.2022 19:54 21,7 C 21,1 C 17,2 C 50 % 1018,9 hPa 0,0 l/m 0 min 0 min 52 W/m 3,2 km/h (1 Bft) 95,74 %
27.07.2022 19:56 21,7 C 21,1 C 17,2 C 50 % 1018,8 hPa 0,0 l/m 0 min 0 min 48 W/m 6,4 km/h (2 Bft) 95,74 %
27.07.2022 19:58 21,6 C 21,1 C 17,2 C 50 % 1018,8 hPa 0,0 l/m 0 min 0 min 45 W/m 9,7 km/h (2 Bft) 95,74 %
27.07.2022 20:00 21,5 C 21,1 C 17,2 C 51 % 1018,8 hPa 0,0 l/m 0 min 0 min 44 W/m 6,4 km/h (2 Bft) 95,74 %
27.07.2022 20:02 21,5 C 21,1 C 17,2 C 52 % 1018,9 hPa 0,0 l/m 0 min 0 min 44 W/m 6,4 km/h (2 Bft) 95,74 %
27.07.2022 20:04 21,4 C 20,6 C 17,2 C 52 % 1018,9 hPa 0,0 l/m 0 min 0 min 45 W/m 12,9 km/h (3 Bft) 91,30 %
27.07.2022 20:06 21,3 C 20,6 C 16,7 C 49 % 1018,8 hPa 0,0 l/m 0 min 0 min 44 W/m 9,7 km/h (2 Bft) 95,74 %
27.07.2022 20:08 21,3 C 20,6 C 16,7 C 50 % 1018,8 hPa 0,0 l/m 0 min 0 min 42 W/m 6,4 km/h (2 Bft) 95,74 %
27.07.2022 20:10 21,2 C 20,6 C 16,7 C 50 % 1018,8 hPa 0,0 l/m 0 min 0 min 40 W/m 6,4 km/h (2 Bft) 95,74 %
27.07.2022 20:12 21,2 C 20,6 C 16,7 C 50 % 1018,8 hPa 0,0 l/m 0 min 0 min 40 W/m 3,2 km/h (1 Bft) 93,62 %
27.07.2022 20:14 21,2 C 20,6 C 16,7 C 50 % 1018,8 hPa 0,0 l/m 0 min 0 min 38 W/m 6,4 km/h (2 Bft) 95,65 %
27.07.2022 20:16 21,2 C 20,6 C 16,7 C 50 % 1018,8 hPa 0,0 l/m 0 min 0 min 37 W/m 6,4 km/h (2 Bft) 93,62 %
27.07.2022 20:18 21,2 C 20,6 C 16,7 C 50 % 1018,8 hPa 0,0 l/m 0 min 0 min 37 W/m 9,7 km/h (2 Bft) 95,74 %
27.07.2022 20:20 21,1 C 20,6 C 16,7 C 49 % 1018,8 hPa 0,0 l/m 0 min 0 min 39 W/m 6,4 km/h (2 Bft) 95,74 %
27.07.2022 20:22 21,1 C 20,0 C 16,7 C 49 % 1018,8 hPa 0,0 l/m 0 min 0 min 39 W/m 6,4 km/h (2 Bft) 97,87 %
27.07.2022 20:24 21,1 C 20,0 C 16,7 C 50 % 1018,8 hPa 0,0 l/m 0 min 0 min 39 W/m 3,2 km/h (1 Bft) 100,00 %
27.07.2022 20:26 21,1 C 20,0 C 16,7 C 49 % 1018,8 hPa 0,0 l/m 0 min 0 min 40 W/m 9,7 km/h (2 Bft) 100,00 %
27.07.2022 20:28 21,1 C 20,0 C 16,7 C 49 % 1018,9 hPa 0,0 l/m 0 min 0 min 43 W/m 12,9 km/h (3 Bft) 100,00 %
27.07.2022 20:30 21,0 C 20,0 C 16,7 C 50 % 1018,9 hPa 0,0 l/m 0 min 0 min 44 W/m 9,7 km/h (2 Bft) 100,00 %
27.07.2022 20:32 20,9 C 20,0 C 16,7 C 50 % 1018,9 hPa 0,0 l/m 0 min 0 min 44 W/m 6,4 km/h (2 Bft) 100,00 %
27.07.2022 20:34 20,9 C 20,0 C 16,1 C 51 % 1018,9 hPa 0,0 l/m 0 min 0 min 44 W/m 6,4 km/h (2 Bft) 100,00 %
27.07.2022 20:36 20,8 C 20,0 C 16,1 C 51 % 1018,9 hPa 0,0 l/m 0 min 0 min 43 W/m 9,7 km/h (2 Bft) 100,00 %
27.07.2022 20:38 20,8 C 20,0 C 16,1 C 51 % 1018,9 hPa 0,0 l/m 0 min 0 min 42 W/m 9,7 km/h (2 Bft) 100,00 %
27.07.2022 20:40 20,7 C 20,0 C 16,1 C 51 % 1018,9 hPa 0,0 l/m 0 min 0 min 40 W/m 6,4 km/h (2 Bft) 100,00 %
27.07.2022 20:42 20,7 C 20,0 C 16,1 C 51 % 1018,9 hPa 0,0 l/m 0 min 0 min 40 W/m 3,2 km/h (1 Bft) 100,00 %
27.07.2022 20:44 20,7 C 20,0 C 16,1 C 52 % 1018,9 hPa 0,0 l/m 0 min 0 min 39 W/m 3,2 km/h (1 Bft) 100,00 %
27.07.2022 20:46 20,6 C 19,4 C 16,1 C 52 % 1018,9 hPa 0,0 l/m 0 min 0 min 39 W/m 6,4 km/h (2 Bft) 100,00 %
27.07.2022 20:48 20,6 C 20,0 C 16,1 C 53 % 1018,9 hPa 0,0 l/m 0 min 0 min 39 W/m 3,2 km/h (1 Bft) 100,00 %
27.07.2022 20:50 20,6 C 19,4 C 16,1 C 53 % 1018,9 hPa 0,0 l/m 2 min 0 min 40 W/m 6,4 km/h (2 Bft) 100,00 %
27.07.2022 20:52 20,6 C 19,4 C 16,1 C 53 % 1018,9 hPa 0,0 l/m 2 min 0 min 44 W/m 6,4 km/h (2 Bft) 100,00 %
27.07.2022 20:54 20,6 C 19,4 C 16,1 C 53 % 1018,9 hPa 0,0 l/m 2 min 0 min 44 W/m 6,4 km/h (2 Bft) 100,00 %
27.07.2022 20:56 20,6 C 19,4 C 16,1 C 53 % 1018,9 hPa 0,0 l/m 2 min 0 min 41 W/m 9,7 km/h (2 Bft) 100,00 %
27.07.2022 20:58 20,5 C 19,4 C 16,1 C 53 % 1018,9 hPa 0,0 l/m 2 min 0 min 39 W/m 6,4 km/h (2 Bft) 97,87 %
27.07.2022 21:00 20,4 C 19,4 C 16,1 C 53 % 1019,0 hPa 0,0 l/m 2 min 0 min 36 W/m 6,4 km/h (2 Bft) 100,00 %
27.07.2022 21:02 20,4 C 19,4 C 16,1 C 54 % 1018,9 hPa 0,0 l/m 2 min 0 min 33 W/m 6,4 km/h (2 Bft) 100,00 %
27.07.2022 21:04 20,4 C 19,4 C 16,1 C 54 % 1018,9 hPa 0,0 l/m 2 min 0 min 30 W/m 3,2 km/h (1 Bft) 100,00 %
27.07.2022 21:06 20,3 C 19,4 C 16,1 C 53 % 1018,9 hPa 0,0 l/m 2 min 0 min 28 W/m 3,2 km/h (1 Bft) 97,87 %
27.07.2022 21:08 20,3 C 19,4 C 16,1 C 53 % 1018,9 hPa 0,0 l/m 2 min 0 min 27 W/m 3,2 km/h (1 Bft) 95,74 %
27.07.2022 21:10 20,3 C 19,4 C 15,6 C 54 % 1018,9 hPa 0,0 l/m 2 min 0 min 24 W/m 3,2 km/h (1 Bft) 97,87 %
27.07.2022 21:12 20,2 C 19,4 C 15,6 C 54 % 1018,9 hPa 0,0 l/m 2 min 0 min 21 W/m 6,4 km/h (2 Bft) 97,87 %
27.07.2022 21:14 20,2 C 19,4 C 15,6 C 55 % 1019,0 hPa 0,0 l/m 0 min 0 min 19 W/m 3,2 km/h (1 Bft) 97,83 %
27.07.2022 21:16 20,2 C 19,4 C 15,6 C 55 % 1019,0 hPa 0,0 l/m 0 min 0 min 17 W/m 6,4 km/h (2 Bft) 97,87 %
27.07.2022 21:18 20,2 C 18,9 C 15,6 C 55 % 1019,0 hPa 0,0 l/m 0 min 0 min 15 W/m 9,7 km/h (2 Bft) 97,87 %
27.07.2022 21:20 20,1 C 18,9 C 15,6 C 55 % 1019,0 hPa 0,0 l/m 0 min 0 min 14 W/m 6,4 km/h (2 Bft) 95,74 %
27.07.2022 21:22 20,1 C 18,9 C 15,6 C 55 % 1019,0 hPa 0,0 l/m 0 min 0 min 12 W/m 6,4 km/h (2 Bft) 97,87 %
27.07.2022 21:24 20,0 C 18,9 C 15,6 C 55 % 1019,0 hPa 0,0 l/m 0 min 0 min 9 W/m 3,2 km/h (1 Bft) 97,87 %
27.07.2022 21:26 19,9 C 18,9 C 15,6 C 55 % 1019,0 hPa 0,0 l/m 0 min 0 min 6 W/m 3,2 km/h (1 Bft) 93,48 %
27.07.2022 21:28 19,9 C 18,9 C 15,6 C 55 % 1019,0 hPa 0,0 l/m 0 min 0 min 5 W/m 3,2 km/h (1 Bft) 97,87 %
27.07.2022 21:30 19,9 C 18,9 C 15,0 C 56 % 1019,1 hPa 0,0 l/m 0 min 0 min 0 W/m 6,4 km/h (2 Bft) 97,87 %
27.07.2022 21:32 19,8 C 18,9 C 15,0 C 56 % 1019,1 hPa 0,0 l/m 0 min 0 min 0 W/m 12,9 km/h (3 Bft) 97,87 %
27.07.2022 21:34 19,8 C 18,3 C 15,0 C 56 % 1019,1 hPa 0,0 l/m 0 min 0 min 0 W/m 12,9 km/h (3 Bft) 97,87 %
27.07.2022 21:36 19,7 C 18,3 C 15,0 C 56 % 1019,1 hPa 0,0 l/m 0 min 0 min 0 W/m 19,3 km/h (3 Bft) 95,74 %
27.07.2022 21:38 19,6 C 18,3 C 15,0 C 57 % 1019,1 hPa 0,0 l/m 0 min 0 min 0 W/m 16,1 km/h (3 Bft) 95,65 %
27.07.2022 21:40 19,4 C 18,3 C 15,0 C 57 % 1019,2 hPa 0,0 l/m 0 min 0 min 0 W/m 6,4 km/h (2 Bft) 97,87 %
27.07.2022 21:42 19,4 C 18,3 C 15,0 C 57 % 1019,2 hPa 0,0 l/m 0 min 0 min 0 W/m 6,4 km/h (2 Bft) 97,87 %
27.07.2022 21:44 19,3 C 18,3 C 15,0 C 57 % 1019,2 hPa 0,0 l/m 0 min 0 min 0 W/m 6,4 km/h (2 Bft) 93,62 %
27.07.2022 21:46 19,3 C 18,3 C 14,4 C 58 % 1019,3 hPa 0,0 l/m 0 min 0 min 0 W/m 3,2 km/h (1 Bft) 93,62 %
27.07.2022 21:48 19,2 C 18,3 C 14,4 C 58 % 1019,3 hPa 0,0 l/m 0 min 0 min 0 W/m 6,4 km/h (2 Bft) 95,74 %
27.07.2022 21:50 19,1 C 17,8 C 14,4 C 58 % 1019,3 hPa 0,0 l/m 0 min 0 min 0 W/m 6,4 km/h (2 Bft) 93,48 %
27.07.2022 21:52 19,1 C 17,8 C 14,4 C 58 % 1019,3 hPa 0,0 l/m 0 min 0 min 0 W/m 9,7 km/h (2 Bft) 93,62 %
27.07.2022 21:54 19,1 C 17,8 C 14,4 C 58 % 1019,3 hPa 0,0 l/m 0 min 0 min 0 W/m 3,2 km/h (1 Bft) 95,74 %
27.07.2022 21:56 19,0 C 17,8 C 14,4 C 59 % 1019,4 hPa 0,0 l/m 0 min 0 min 0 W/m 12,9 km/h (3 Bft) 93,62 %
27.07.2022 21:58 18,9 C 17,8 C 14,4 C 59 % 1019,3 hPa 0,0 l/m 0 min 0 min 0 W/m 9,7 km/h (2 Bft) 97,87 %
27.07.2022 22:00 18,9 C 17,8 C 14,4 C 60 % 1019,4 hPa 0,0 l/m 0 min 0 min 0 W/m 6,4 km/h (2 Bft) 95,74 %
27.07.2022 22:02 18,8 C 17,8 C 14,4 C 60 % 1019,4 hPa 0,0 l/m 0 min 0 min 0 W/m 6,4 km/h (2 Bft) 97,83 %
27.07.2022 22:04 18,8 C 17,8 C 14,4 C 60 % 1019,4 hPa 0,0 l/m 0 min 0 min 0 W/m 6,4 km/h (2 Bft) 95,74 %
27.07.2022 22:06 18,7 C 17,8 C 14,4 C 61 % 1019,4 hPa 0,0 l/m 0 min 0 min 0 W/m 6,4 km/h (2 Bft) 97,87 %
27.07.2022 22:08 18,7 C 17,8 C 14,4 C 61 % 1019,4 hPa 0,0 l/m 0 min 0 min 0 W/m 6,4 km/h (2 Bft) 97,87 %
27.07.2022 22:10 18,7 C 17,2 C 13,9 C 62 % 1019,4 hPa 0,0 l/m 0 min 0 min 0 W/m 6,4 km/h (2 Bft) 97,87 %
27.07.2022 22:12 18,6 C 17,2 C 13,9 C 62 % 1019,4 hPa 0,0 l/m 0 min 0 min 0 W/m 3,2 km/h (1 Bft) 95,74 %
27.07.2022 22:14 18,6 C 17,2 C 13,9 C 62 % 1019,4 hPa 0,0 l/m 0 min 0 min 0 W/m 6,4 km/h (2 Bft) 97,83 %
27.07.2022 22:16 18,5 C 17,2 C 13,9 C 62 % 1019,4 hPa 0,0 l/m 0 min 0 min 0 W/m 6,4 km/h (2 Bft) 97,87 %
27.07.2022 22:18 18,5 C 17,2 C 13,9 C 63 % 1019,4 hPa 0,0 l/m 0 min 0 min 0 W/m 6,4 km/h (2 Bft) 95,74 %
27.07.2022 22:20 18,4 C 17,2 C 13,9 C 63 % 1019,4 hPa 0,0 l/m 0 min 0 min 0 W/m 12,9 km/h (3 Bft) 97,87 %
27.07.2022 22:22 18,4 C 17,2 C 13,9 C 63 % 1019,5 hPa 0,0 l/m 0 min 0 min 0 W/m 9,7 km/h (2 Bft) 97,87 %
27.07.2022 22:24 18,4 C 17,2 C 13,9 C 63 % 1019,5 hPa 0,0 l/m 0 min 0 min 0 W/m 9,7 km/h (2 Bft) 97,87 %
27.07.2022 22:26 18,3 C 17,2 C 13,9 C 63 % 1019,5 hPa 0,0 l/m 0 min 0 min 0 W/m 6,4 km/h (2 Bft) 97,83 %
27.07.2022 22:28 18,3 C 17,2 C 13,9 C 64 % 1019,5 hPa 0,0 l/m 0 min 0 min 0 W/m 3,2 km/h (1 Bft) 97,87 %
27.07.2022 22:30 18,3 C 16,7 C 13,3 C 64 % 1019,5 hPa 0,0 l/m 0 min 0 min 0 W/m 6,4 km/h (2 Bft) 97,87 %
27.07.2022 22:32 18,2 C 16,7 C 13,3 C 65 % 1019,5 hPa 0,0 l/m 0 min 0 min 0 W/m 3,2 km/h (1 Bft) 95,74 %
27.07.2022 22:34 18,1 C 16,7 C 13,3 C 65 % 1019,6 hPa 0,0 l/m 0 min 0 min 0 W/m 3,2 km/h (1 Bft) 97,87 %
27.07.2022 22:36 18,1 C 16,7 C 13,3 C 65 % 1019,5 hPa 0,0 l/m 0 min 0 min 0 W/m 3,2 km/h (1 Bft) 97,87 %
27.07.2022 22:38 18,0 C 16,7 C 13,3 C 65 % 1019,6 hPa 0,0 l/m 0 min 0 min 0 W/m 3,2 km/h (1 Bft) 97,83 %
27.07.2022 22:40 17,9 C 16,7 C 13,3 C 65 % 1019,6 hPa 0,0 l/m 0 min 0 min 0 W/m 3,2 km/h (1 Bft) 97,87 %
27.07.2022 22:42 17,9 C 16,7 C 13,3 C 66 % 1019,6 hPa 0,0 l/m 0 min 0 min 0 W/m 6,4 km/h (2 Bft) 97,87 %
27.07.2022 22:44 17,8 C 16,7 C 13,3 C 66 % 1019,5 hPa 0,0 l/m 0 min 0 min 0 W/m 6,4 km/h (2 Bft) 97,87 %
27.07.2022 22:46 17,8 C 16,7 C 13,3 C 66 % 1019,5 hPa 0,0 l/m 0 min 0 min 0 W/m 3,2 km/h (1 Bft) 97,87 %
27.07.2022 22:48 17,8 C 16,7 C 13,3 C 66 % 1019,5 hPa 0,0 l/m 0 min 0 min 0 W/m 3,2 km/h (1 Bft) 97,87 %
27.07.2022 22:50 17,7 C 16,7 C 13,3 C 66 % 1019,5 hPa 0,0 l/m 0 min 0 min 0 W/m 3,2 km/h (1 Bft) 95,65 %
27.07.2022 22:52 17,7 C 16,7 C 13,3 C 66 % 1019,5 hPa 0,0 l/m 0 min 0 min 0 W/m 3,2 km/h (1 Bft) 97,87 %
27.07.2022 22:54 17,7 C 16,7 C 13,3 C 66 % 1019,5 hPa 0,0 l/m 0 min 0 min 0 W/m 3,2 km/h (1 Bft) 97,87 %
27.07.2022 22:56 17,6 C 16,7 C 13,3 C 66 % 1019,5 hPa 0,0 l/m 0 min 0 min 0 W/m 6,4 km/h (2 Bft) 97,87 %
27.07.2022 22:58 17,6 C 16,7 C 13,3 C 66 % 1019,5 hPa 0,0 l/m 0 min 0 min 0 W/m 3,2 km/h (1 Bft) 100,00 %
27.07.2022 23:00 17,6 C 16,7 C 13,3 C 66 % 1019,5 hPa 0,0 l/m 0 min 0 min 0 W/m 6,4 km/h (2 Bft) 100,00 %
27.07.2022 23:02 17,5 C 16,7 C 13,3 C 66 % 1019,6 hPa 0,0 l/m 0 min 0 min 0 W/m 9,7 km/h (2 Bft) 100,00 %
27.07.2022 23:04 17,5 C 16,7 C 13,3 C 66 % 1019,5 hPa 0,0 l/m 0 min 0 min 0 W/m 3,2 km/h (1 Bft) 100,00 %
27.07.2022 23:06 17,4 C 16,7 C 13,3 C 67 % 1019,6 hPa 0,0 l/m 0 min 0 min 0 W/m 3,2 km/h (1 Bft) 100,00 %
27.07.2022 23:08 17,4 C 16,7 C 13,3 C 67 % 1019,5 hPa 0,0 l/m 0 min 0 min 0 W/m 9,7 km/h (2 Bft) 100,00 %
27.07.2022 23:10 17,4 C 16,7 C 13,3 C 67 % 1019,6 hPa 0,0 l/m 0 min 0 min 0 W/m 6,4 km/h (2 Bft) 97,87 %
27.07.2022 23:12 17,4 C 16,7 C 13,3 C 66 % 1019,5 hPa 0,0 l/m 0 min 0 min 0 W/m 6,4 km/h (2 Bft) 100,00 %
27.07.2022 23:14 17,3 C 16,7 C 12,8 C 66 % 1019,6 hPa 0,0 l/m 0 min 0 min 0 W/m 3,2 km/h (1 Bft) 100,00 %
27.07.2022 23:16 17,3 C 16,7 C 12,8 C 67 % 1019,6 hPa 0,0 l/m 0 min 0 min 0 W/m 6,4 km/h (2 Bft) 97,87 %
27.07.2022 23:18 17,3 C 16,7 C 12,8 C 67 % 1019,7 hPa 0,0 l/m 0 min 0 min 0 W/m 3,2 km/h (1 Bft) 100,00 %
27.07.2022 23:20 17,3 C 16,1 C 12,8 C 67 % 1019,7 hPa 0,0 l/m 0 min 0 min 0 W/m 6,4 km/h (2 Bft) 100,00 %
27.07.2022 23:22 17,3 C 16,1 C 12,8 C 67 % 1019,6 hPa 0,0 l/m 0 min 0 min 0 W/m 3,2 km/h (1 Bft) 100,00 %
27.07.2022 23:24 17,2 C 16,1 C 12,8 C 67 % 1019,5 hPa 0,0 l/m 0 min 0 min 0 W/m 12,9 km/h (3 Bft) 97,83 %
27.07.2022 23:26 17,2 C 16,1 C 12,8 C 67 % 1019,6 hPa 0,0 l/m 0 min 0 min 0 W/m 9,7 km/h (2 Bft) 100,00 %
27.07.2022 23:28 17,2 C 16,1 C 12,8 C 67 % 1019,6 hPa 0,0 l/m 0 min 0 min 0 W/m 3,2 km/h (1 Bft) 100,00 %
27.07.2022 23:30 17,2 C 16,1 C 12,8 C 67 % 1019,6 hPa 0,0 l/m 0 min 0 min 0 W/m 3,2 km/h (1 Bft) 97,87 %
27.07.2022 23:32 17,2 C 16,1 C 12,8 C 67 % 1019,7 hPa 0,0 l/m 0 min 0 min 0 W/m 12,9 km/h (3 Bft) 97,87 %
27.07.2022 23:34 17,2 C 16,1 C 12,8 C 67 % 1019,7 hPa 0,0 l/m 0 min 0 min 0 W/m 12,9 km/h (3 Bft) 97,87 %
27.07.2022 23:36 17,1 C 16,1 C 12,8 C 67 % 1019,7 hPa 0,0 l/m 0 min 0 min 0 W/m 3,2 km/h (1 Bft) 97,83 %
27.07.2022 23:38 17,1 C 16,1 C 12,8 C 67 % 1019,7 hPa 0,0 l/m 0 min 0 min 0 W/m 3,2 km/h (1 Bft) 97,87 %
27.07.2022 23:40 17,1 C 16,1 C 12,8 C 67 % 1019,7 hPa 0,0 l/m 0 min 0 min 0 W/m 3,2 km/h (1 Bft) 97,87 %
27.07.2022 23:42 17,1 C 16,1 C 12,8 C 67 % 1019,7 hPa 0,0 l/m 0 min 0 min 0 W/m 6,4 km/h (2 Bft) 97,87 %
27.07.2022 23:44 17,1 C 16,1 C 12,8 C 67 % 1019,7 hPa 0,0 l/m 0 min 0 min 0 W/m 6,4 km/h (2 Bft) 97,87 %
27.07.2022 23:46 17,0 C 16,1 C 12,8 C 67 % 1019,6 hPa 0,0 l/m 0 min 0 min 0 W/m 6,4 km/h (2 Bft) 97,87 %
27.07.2022 23:48 17,0 C 16,1 C 12,8 C 67 % 1019,7 hPa 0,0 l/m 0 min 0 min 0 W/m 6,4 km/h (2 Bft) 97,87 %
27.07.2022 23:50 17,0 C 16,1 C 12,8 C 67 % 1019,7 hPa 0,0 l/m 0 min 0 min 0 W/m 6,4 km/h (2 Bft) 95,65 %
27.07.2022 23:52 16,9 C 16,1 C 12,8 C 67 % 1019,6 hPa 0,0 l/m 0 min 0 min 0 W/m 3,2 km/h (1 Bft) 97,87 %
27.07.2022 23:54 16,9 C 16,1 C 12,8 C 67 % 1019,6 hPa 0,0 l/m 0 min 0 min 0 W/m 9,7 km/h (2 Bft) 97,87 %
27.07.2022 23:56 16,9 C 16,1 C 12,8 C 67 % 1019,6 hPa 0,0 l/m 0 min 0 min 0 W/m 3,2 km/h (1 Bft) 97,87 %
27.07.2022 23:58 16,9 C 16,1 C 12,8 C 68 % 1019,6 hPa 0,0 l/m 0 min 0 min 0 W/m 3,2 km/h (1 Bft) 95,74 %
_ Min-Zeit 06:22 05:12 05:42 17:56 19:02 - - - - 00:02 00:02
Minimum _ 12,3 C 11,7 C 8,3 C 45 % 1018,8 hPa - - - - 0,0 km/h (0 Bft) 11,76 %
_ Max-Zeit 17:50 17:34 12:46 07:02 11:18 00:00 08:06 00:00 12:44 15:02 00:00
Maximum _ 24,2 C 31,1 C 25,0 C 91 % 1021,0 hPa 0,0 l/m 2 min 0 min 1132 W/m 32,2 km/h
O-NO (5 Bft)
100,00 %
Durchschnitt _ 18,1 C 18,8 C 14,3 C 67 % 1019,9 hPa #0,0 l/m #7:30 h #0 min. 359 W/m 8,1 km/h (2 Bft) 97,22 %
© 2022 W. Hausmann